<?xml version='1.0' encoding='UTF-8'?><gpx version="1.1" creator="JPX - https://github.com/jenetics/jpx" xmlns="http://www.topografix.com/GPX/1/1"><trk><trkseg><trkpt lat="9.9915683" lon="-84.1705281"><ele>990.0</ele><time>2026-04-10T21:34:21.955Z</time></trkpt><trkpt lat="9.99148" lon="-84.1705286"><ele>990.0</ele><time>2026-04-10T21:34:28.955Z</time></trkpt><trkpt lat="9.9914034" lon="-84.1705499"><ele>990.0</ele><time>2026-04-10T21:34:30.955Z</time></trkpt><trkpt lat="9.9913286" lon="-84.1705313"><ele>990.0</ele><time>2026-04-10T21:34:31.954Z</time></trkpt><trkpt lat="9.9911718" lon="-84.1704375"><ele>990.0</ele><time>2026-04-10T21:34:47.955Z</time></trkpt><trkpt lat="9.9908007" lon="-84.170376"><ele>990.0</ele><time>2026-04-10T21:34:53.955Z</time></trkpt><trkpt lat="9.9908449" lon="-84.1701843"><ele>990.0</ele><time>2026-04-10T21:34:59.954Z</time></trkpt><trkpt lat="9.9908616" lon="-84.1701216"><ele>990.0</ele><time>2026-04-10T21:35:02.955Z</time></trkpt><trkpt lat="9.990867" lon="-84.1700551"><ele>990.0</ele><time>2026-04-10T21:35:12.955Z</time></trkpt><trkpt lat="9.9908595" lon="-84.1699854"><ele>990.0</ele><time>2026-04-10T21:35:18.955Z</time></trkpt><trkpt lat="9.9908011" lon="-84.16995"><ele>989.3333333333334</ele><time>2026-04-10T21:35:24.956Z</time></trkpt><trkpt lat="9.9907379" lon="-84.1699088"><ele>988.6666666666667</ele><time>2026-04-10T21:35:47.955Z</time></trkpt><trkpt lat="9.990677" lon="-84.1698595"><ele>988.0</ele><time>2026-04-10T21:35:53.955Z</time></trkpt><trkpt lat="9.9906505" lon="-84.1697753"><ele>987.3333333333334</ele><time>2026-04-10T21:35:55.955Z</time></trkpt><trkpt lat="9.9906575" lon="-84.1697089"><ele>986.6666666666667</ele><time>2026-04-10T21:35:56.955Z</time></trkpt><trkpt lat="9.9906731" lon="-84.1696414"><ele>986.0</ele><time>2026-04-10T21:35:57.956Z</time></trkpt><trkpt lat="9.9906954" lon="-84.1695648"><ele>986.0</ele><time>2026-04-10T21:35:58.955Z</time></trkpt><trkpt lat="9.9907214" lon="-84.1694829"><ele>985.9999999999999</ele><time>2026-04-10T21:35:59.953Z</time></trkpt><trkpt lat="9.9907458" lon="-84.1693991"><ele>985.9999999999999</ele><time>2026-04-10T21:36:00.954Z</time></trkpt><trkpt lat="9.9907774" lon="-84.1693003"><ele>986.0</ele><time>2026-04-10T21:36:01.954Z</time></trkpt><trkpt lat="9.9908112" lon="-84.1692014"><ele>986.0</ele><time>2026-04-10T21:36:02.955Z</time></trkpt><trkpt lat="9.9908554" lon="-84.1690977"><ele>987.25</ele><time>2026-04-10T21:36:03.955Z</time></trkpt><trkpt lat="9.9908948" lon="-84.1689857"><ele>988.5</ele><time>2026-04-10T21:36:04.955Z</time></trkpt><trkpt lat="9.9909351" lon="-84.168869"><ele>989.75</ele><time>2026-04-10T21:36:05.954Z</time></trkpt><trkpt lat="9.9909755" lon="-84.1687518"><ele>991.0</ele><time>2026-04-10T21:36:06.954Z</time></trkpt><trkpt lat="9.9910146" lon="-84.1686278"><ele>991.0</ele><time>2026-04-10T21:36:07.956Z</time></trkpt><trkpt lat="9.9910533" lon="-84.1685081"><ele>991.0</ele><time>2026-04-10T21:36:08.955Z</time></trkpt><trkpt lat="9.9910909" lon="-84.1683921"><ele>991.0</ele><time>2026-04-10T21:36:09.955Z</time></trkpt><trkpt lat="9.9911296" lon="-84.1682728"><ele>991.0</ele><time>2026-04-10T21:36:10.954Z</time></trkpt><trkpt lat="9.991164" lon="-84.1681602"><ele>991.0</ele><time>2026-04-10T21:36:11.954Z</time></trkpt><trkpt lat="9.9912055" lon="-84.1680468"><ele>991.0</ele><time>2026-04-10T21:36:12.954Z</time></trkpt><trkpt lat="9.9912432" lon="-84.1679391"><ele>991.0</ele><time>2026-04-10T21:36:13.955Z</time></trkpt><trkpt lat="9.9912807" lon="-84.1678277"><ele>991.0</ele><time>2026-04-10T21:36:14.955Z</time></trkpt><trkpt lat="9.9913162" lon="-84.1677139"><ele>991.0</ele><time>2026-04-10T21:36:15.955Z</time></trkpt><trkpt lat="9.9913508" lon="-84.1676101"><ele>990.9999999999999</ele><time>2026-04-10T21:36:16.955Z</time></trkpt><trkpt lat="9.9913813" lon="-84.1675102"><ele>990.9999999999999</ele><time>2026-04-10T21:36:17.955Z</time></trkpt><trkpt lat="9.9914138" lon="-84.1674184"><ele>991.0</ele><time>2026-04-10T21:36:18.954Z</time></trkpt><trkpt lat="9.9914455" lon="-84.1673276"><ele>991.0</ele><time>2026-04-10T21:36:19.955Z</time></trkpt><trkpt lat="9.9914757" lon="-84.1672407"><ele>990.4</ele><time>2026-04-10T21:36:20.955Z</time></trkpt><trkpt lat="9.9915047" lon="-84.1671571"><ele>989.8</ele><time>2026-04-10T21:36:21.954Z</time></trkpt><trkpt lat="9.991526" lon="-84.1670815"><ele>989.1999999999999</ele><time>2026-04-10T21:36:22.956Z</time></trkpt><trkpt lat="9.9915476" lon="-84.1670178"><ele>988.5999999999999</ele><time>2026-04-10T21:36:23.955Z</time></trkpt><trkpt lat="9.9915936" lon="-84.1668965"><ele>988.0</ele><time>2026-04-10T21:36:25.954Z</time></trkpt><trkpt lat="9.9916292" lon="-84.1667872"><ele>987.9999999999999</ele><time>2026-04-10T21:36:27.954Z</time></trkpt><trkpt lat="9.9916626" lon="-84.1667029"><ele>988.0</ele><time>2026-04-10T21:36:29.955Z</time></trkpt><trkpt lat="9.9916738" lon="-84.1666271"><ele>988.0</ele><time>2026-04-10T21:36:31.955Z</time></trkpt><trkpt lat="9.9916201" lon="-84.1665404"><ele>988.0</ele><time>2026-04-10T21:36:33.954Z</time></trkpt><trkpt lat="9.9915586" lon="-84.1665132"><ele>987.9999999999999</ele><time>2026-04-10T21:36:34.955Z</time></trkpt><trkpt lat="9.9914835" lon="-84.166478"><ele>988.0</ele><time>2026-04-10T21:36:35.954Z</time></trkpt><trkpt lat="9.9913956" lon="-84.1664433"><ele>987.0</ele><time>2026-04-10T21:36:36.954Z</time></trkpt><trkpt lat="9.9912958" lon="-84.1664026"><ele>986.0</ele><time>2026-04-10T21:36:37.954Z</time></trkpt><trkpt lat="9.9911961" lon="-84.1663549"><ele>985.0</ele><time>2026-04-10T21:36:38.956Z</time></trkpt><trkpt lat="9.9910983" lon="-84.1663099"><ele>984.0</ele><time>2026-04-10T21:36:39.954Z</time></trkpt><trkpt lat="9.9910039" lon="-84.1662576"><ele>983.0</ele><time>2026-04-10T21:36:40.953Z</time></trkpt><trkpt lat="9.9909071" lon="-84.1662013"><ele>982.25</ele><time>2026-04-10T21:36:41.955Z</time></trkpt><trkpt lat="9.990809" lon="-84.1661506"><ele>981.5</ele><time>2026-04-10T21:36:42.954Z</time></trkpt><trkpt lat="9.9907119" lon="-84.1660975"><ele>980.75</ele><time>2026-04-10T21:36:43.955Z</time></trkpt><trkpt lat="9.9906014" lon="-84.1660382"><ele>980.0</ele><time>2026-04-10T21:36:44.954Z</time></trkpt><trkpt lat="9.9904758" lon="-84.1659779"><ele>980.0</ele><time>2026-04-10T21:36:45.955Z</time></trkpt><trkpt lat="9.9903378" lon="-84.1659183"><ele>980.0</ele><time>2026-04-10T21:36:46.954Z</time></trkpt><trkpt lat="9.9901883" lon="-84.1658611"><ele>980.0</ele><time>2026-04-10T21:36:47.955Z</time></trkpt><trkpt lat="9.9900296" lon="-84.1658012"><ele>978.3333333333334</ele><time>2026-04-10T21:36:48.955Z</time></trkpt><trkpt lat="9.9898688" lon="-84.165741"><ele>976.6666666666667</ele><time>2026-04-10T21:36:49.954Z</time></trkpt><trkpt lat="9.9897027" lon="-84.1656794"><ele>975.0</ele><time>2026-04-10T21:36:50.954Z</time></trkpt><trkpt lat="9.9895355" lon="-84.1656167"><ele>974.3333333333333</ele><time>2026-04-10T21:36:51.955Z</time></trkpt><trkpt lat="9.9893746" lon="-84.1655589"><ele>973.6666666666666</ele><time>2026-04-10T21:36:52.954Z</time></trkpt><trkpt lat="9.9892163" lon="-84.1655029"><ele>973.0</ele><time>2026-04-10T21:36:53.955Z</time></trkpt><trkpt lat="9.9890567" lon="-84.1654447"><ele>973.0</ele><time>2026-04-10T21:36:54.955Z</time></trkpt><trkpt lat="9.9888961" lon="-84.1653845"><ele>973.0</ele><time>2026-04-10T21:36:55.954Z</time></trkpt><trkpt lat="9.9887312" lon="-84.1653157"><ele>973.0</ele><time>2026-04-10T21:36:56.955Z</time></trkpt><trkpt lat="9.9885628" lon="-84.165245"><ele>973.0</ele><time>2026-04-10T21:36:57.955Z</time></trkpt><trkpt lat="9.9883859" lon="-84.1651763"><ele>973.0</ele><time>2026-04-10T21:36:58.955Z</time></trkpt><trkpt lat="9.9881995" lon="-84.1651079"><ele>973.0</ele><time>2026-04-10T21:36:59.955Z</time></trkpt><trkpt lat="9.9880109" lon="-84.1650397"><ele>972.6666666666666</ele><time>2026-04-10T21:37:00.955Z</time></trkpt><trkpt lat="9.9878231" lon="-84.1649711"><ele>972.3333333333333</ele><time>2026-04-10T21:37:01.955Z</time></trkpt><trkpt lat="9.987635" lon="-84.1649004"><ele>972.0</ele><time>2026-04-10T21:37:02.953Z</time></trkpt><trkpt lat="9.9874416" lon="-84.1648281"><ele>973.0</ele><time>2026-04-10T21:37:03.954Z</time></trkpt><trkpt lat="9.9872505" lon="-84.1647552"><ele>974.0</ele><time>2026-04-10T21:37:04.954Z</time></trkpt><trkpt lat="9.9870737" lon="-84.1646849"><ele>975.0</ele><time>2026-04-10T21:37:05.955Z</time></trkpt><trkpt lat="9.9868978" lon="-84.1646217"><ele>975.0</ele><time>2026-04-10T21:37:06.956Z</time></trkpt><trkpt lat="9.986725" lon="-84.1645599"><ele>975.0</ele><time>2026-04-10T21:37:07.953Z</time></trkpt><trkpt lat="9.9865487" lon="-84.1644925"><ele>975.0</ele><time>2026-04-10T21:37:08.954Z</time></trkpt><trkpt lat="9.9863733" lon="-84.1644253"><ele>975.3333333333333</ele><time>2026-04-10T21:37:09.954Z</time></trkpt><trkpt lat="9.9861966" lon="-84.1643546"><ele>975.6666666666666</ele><time>2026-04-10T21:37:10.955Z</time></trkpt><trkpt lat="9.9860211" lon="-84.164285"><ele>976.0</ele><time>2026-04-10T21:37:11.954Z</time></trkpt><trkpt lat="9.9858406" lon="-84.1642168"><ele>978.0</ele><time>2026-04-10T21:37:12.955Z</time></trkpt><trkpt lat="9.9856534" lon="-84.164151"><ele>980.0</ele><time>2026-04-10T21:37:13.955Z</time></trkpt><trkpt lat="9.9854602" lon="-84.1640762"><ele>982.0</ele><time>2026-04-10T21:37:14.954Z</time></trkpt><trkpt lat="9.9852575" lon="-84.1640028"><ele>982.3333333333333</ele><time>2026-04-10T21:37:15.956Z</time></trkpt><trkpt lat="9.9850578" lon="-84.1639245"><ele>982.6666666666667</ele><time>2026-04-10T21:37:16.954Z</time></trkpt><trkpt lat="9.9848615" lon="-84.1638496"><ele>983.0</ele><time>2026-04-10T21:37:17.954Z</time></trkpt><trkpt lat="9.9846631" lon="-84.1637749"><ele>983.6666666666667</ele><time>2026-04-10T21:37:18.954Z</time></trkpt><trkpt lat="9.9844604" lon="-84.1637046"><ele>984.3333333333333</ele><time>2026-04-10T21:37:19.955Z</time></trkpt><trkpt lat="9.9842629" lon="-84.16363"><ele>985.0</ele><time>2026-04-10T21:37:20.955Z</time></trkpt><trkpt lat="9.9840628" lon="-84.1635561"><ele>986.3333333333333</ele><time>2026-04-10T21:37:21.955Z</time></trkpt><trkpt lat="9.9838612" lon="-84.1634904"><ele>987.6666666666667</ele><time>2026-04-10T21:37:22.955Z</time></trkpt><trkpt lat="9.983661" lon="-84.1634223"><ele>989.0</ele><time>2026-04-10T21:37:23.954Z</time></trkpt><trkpt lat="9.9834602" lon="-84.1633552"><ele>990.3333333333334</ele><time>2026-04-10T21:37:24.953Z</time></trkpt><trkpt lat="9.9832625" lon="-84.163287"><ele>991.6666666666667</ele><time>2026-04-10T21:37:25.954Z</time></trkpt><trkpt lat="9.9830679" lon="-84.1632145"><ele>993.0</ele><time>2026-04-10T21:37:26.955Z</time></trkpt><trkpt lat="9.9828777" lon="-84.1631429"><ele>994.3333333333333</ele><time>2026-04-10T21:37:27.955Z</time></trkpt><trkpt lat="9.9826986" lon="-84.1630707"><ele>995.6666666666666</ele><time>2026-04-10T21:37:28.954Z</time></trkpt><trkpt lat="9.9825237" lon="-84.162998"><ele>997.0</ele><time>2026-04-10T21:37:29.954Z</time></trkpt><trkpt lat="9.9823634" lon="-84.1629188"><ele>997.6666666666666</ele><time>2026-04-10T21:37:30.954Z</time></trkpt><trkpt lat="9.9822049" lon="-84.1628464"><ele>998.3333333333333</ele><time>2026-04-10T21:37:31.954Z</time></trkpt><trkpt lat="9.9820672" lon="-84.1627642"><ele>999.0</ele><time>2026-04-10T21:37:32.955Z</time></trkpt><trkpt lat="9.9819249" lon="-84.1626772"><ele>999.0</ele><time>2026-04-10T21:37:33.955Z</time></trkpt><trkpt lat="9.9817916" lon="-84.1625945"><ele>999.0</ele><time>2026-04-10T21:37:34.954Z</time></trkpt><trkpt lat="9.981666" lon="-84.1625128"><ele>999.0</ele><time>2026-04-10T21:37:35.955Z</time></trkpt><trkpt lat="9.9815435" lon="-84.1624277"><ele>999.75</ele><time>2026-04-10T21:37:36.955Z</time></trkpt><trkpt lat="9.9814279" lon="-84.1623422"><ele>1000.5</ele><time>2026-04-10T21:37:37.954Z</time></trkpt><trkpt lat="9.9813079" lon="-84.1622582"><ele>1001.25</ele><time>2026-04-10T21:37:38.955Z</time></trkpt><trkpt lat="9.9811944" lon="-84.1621686"><ele>1002.0</ele><time>2026-04-10T21:37:39.955Z</time></trkpt><trkpt lat="9.9810847" lon="-84.1620839"><ele>1002.0</ele><time>2026-04-10T21:37:40.954Z</time></trkpt><trkpt lat="9.980973" lon="-84.161995"><ele>1002.0</ele><time>2026-04-10T21:37:41.953Z</time></trkpt><trkpt lat="9.9808569" lon="-84.1619094"><ele>1002.0</ele><time>2026-04-10T21:37:42.955Z</time></trkpt><trkpt lat="9.9807453" lon="-84.1618356"><ele>1002.0</ele><time>2026-04-10T21:37:43.955Z</time></trkpt><trkpt lat="9.980642" lon="-84.1617597"><ele>1000.75</ele><time>2026-04-10T21:37:44.955Z</time></trkpt><trkpt lat="9.9805436" lon="-84.1616899"><ele>999.5</ele><time>2026-04-10T21:37:45.955Z</time></trkpt><trkpt lat="9.9804463" lon="-84.161625"><ele>998.25</ele><time>2026-04-10T21:37:46.954Z</time></trkpt><trkpt lat="9.9803586" lon="-84.1615551"><ele>997.0</ele><time>2026-04-10T21:37:47.954Z</time></trkpt><trkpt lat="9.9802766" lon="-84.1614807"><ele>997.0</ele><time>2026-04-10T21:37:48.955Z</time></trkpt><trkpt lat="9.9801986" lon="-84.161408"><ele>997.0</ele><time>2026-04-10T21:37:49.954Z</time></trkpt><trkpt lat="9.9801366" lon="-84.1613349"><ele>997.0</ele><time>2026-04-10T21:37:50.955Z</time></trkpt><trkpt lat="9.9800692" lon="-84.1612535"><ele>997.0</ele><time>2026-04-10T21:37:51.953Z</time></trkpt><trkpt lat="9.9799948" lon="-84.1611641"><ele>997.0</ele><time>2026-04-10T21:37:52.954Z</time></trkpt><trkpt lat="9.9799222" lon="-84.1610667"><ele>995.75</ele><time>2026-04-10T21:37:53.954Z</time></trkpt><trkpt lat="9.9798504" lon="-84.1609665"><ele>994.5</ele><time>2026-04-10T21:37:54.954Z</time></trkpt><trkpt lat="9.97978" lon="-84.1608611"><ele>993.25</ele><time>2026-04-10T21:37:55.954Z</time></trkpt><trkpt lat="9.9797184" lon="-84.16076"><ele>992.0</ele><time>2026-04-10T21:37:56.955Z</time></trkpt><trkpt lat="9.9796615" lon="-84.1606644"><ele>992.0</ele><time>2026-04-10T21:37:57.954Z</time></trkpt><trkpt lat="9.9796009" lon="-84.1605686"><ele>992.0</ele><time>2026-04-10T21:37:58.954Z</time></trkpt><trkpt lat="9.9795447" lon="-84.1604748"><ele>992.0</ele><time>2026-04-10T21:37:59.955Z</time></trkpt><trkpt lat="9.9794886" lon="-84.160385"><ele>992.0</ele><time>2026-04-10T21:38:00.954Z</time></trkpt><trkpt lat="9.9794476" lon="-84.1602975"><ele>992.0</ele><time>2026-04-10T21:38:01.954Z</time></trkpt><trkpt lat="9.9793994" lon="-84.1602101"><ele>992.0</ele><time>2026-04-10T21:38:02.955Z</time></trkpt><trkpt lat="9.979363" lon="-84.1601218"><ele>992.0</ele><time>2026-04-10T21:38:03.954Z</time></trkpt><trkpt lat="9.9793161" lon="-84.1600503"><ele>992.0</ele><time>2026-04-10T21:38:04.954Z</time></trkpt><trkpt lat="9.9792589" lon="-84.1599535"><ele>992.0</ele><time>2026-04-10T21:38:06.956Z</time></trkpt><trkpt lat="9.9792218" lon="-84.1598888"><ele>992.0</ele><time>2026-04-10T21:38:08.954Z</time></trkpt><trkpt lat="9.9791556" lon="-84.1597735"><ele>990.2</ele><time>2026-04-10T21:38:10.956Z</time></trkpt><trkpt lat="9.9791147" lon="-84.1596926"><ele>988.4000000000001</ele><time>2026-04-10T21:38:11.954Z</time></trkpt><trkpt lat="9.979075" lon="-84.1596027"><ele>986.5999999999999</ele><time>2026-04-10T21:38:12.954Z</time></trkpt><trkpt lat="9.9790106" lon="-84.1594966"><ele>984.8</ele><time>2026-04-10T21:38:13.955Z</time></trkpt><trkpt lat="9.9789451" lon="-84.1593839"><ele>983.0</ele><time>2026-04-10T21:38:14.954Z</time></trkpt><trkpt lat="9.9788662" lon="-84.1592541"><ele>983.0</ele><time>2026-04-10T21:38:15.953Z</time></trkpt><trkpt lat="9.9787874" lon="-84.1591091"><ele>983.0</ele><time>2026-04-10T21:38:16.955Z</time></trkpt><trkpt lat="9.9787053" lon="-84.1589652"><ele>983.0</ele><time>2026-04-10T21:38:17.954Z</time></trkpt><trkpt lat="9.9786221" lon="-84.1588152"><ele>984.0</ele><time>2026-04-10T21:38:18.954Z</time></trkpt><trkpt lat="9.9785323" lon="-84.1586548"><ele>985.0</ele><time>2026-04-10T21:38:19.955Z</time></trkpt><trkpt lat="9.9784405" lon="-84.1584894"><ele>986.0</ele><time>2026-04-10T21:38:20.953Z</time></trkpt><trkpt lat="9.9783537" lon="-84.1583327"><ele>985.6666666666667</ele><time>2026-04-10T21:38:21.954Z</time></trkpt><trkpt lat="9.9782693" lon="-84.1581716"><ele>985.3333333333333</ele><time>2026-04-10T21:38:22.955Z</time></trkpt><trkpt lat="9.9781918" lon="-84.1580086"><ele>985.0</ele><time>2026-04-10T21:38:23.954Z</time></trkpt><trkpt lat="9.9781037" lon="-84.1578465"><ele>985.0</ele><time>2026-04-10T21:38:24.954Z</time></trkpt><trkpt lat="9.9780218" lon="-84.1576965"><ele>985.0</ele><time>2026-04-10T21:38:25.956Z</time></trkpt><trkpt lat="9.9779418" lon="-84.1575586"><ele>985.0</ele><time>2026-04-10T21:38:26.954Z</time></trkpt><trkpt lat="9.9778655" lon="-84.1574266"><ele>986.6666666666666</ele><time>2026-04-10T21:38:27.953Z</time></trkpt><trkpt lat="9.9777917" lon="-84.1572947"><ele>988.3333333333333</ele><time>2026-04-10T21:38:28.954Z</time></trkpt><trkpt lat="9.9777177" lon="-84.157154"><ele>990.0</ele><time>2026-04-10T21:38:29.954Z</time></trkpt><trkpt lat="9.9776373" lon="-84.1570148"><ele>990.0</ele><time>2026-04-10T21:38:30.954Z</time></trkpt><trkpt lat="9.9775608" lon="-84.1568773"><ele>990.0</ele><time>2026-04-10T21:38:31.954Z</time></trkpt><trkpt lat="9.9774976" lon="-84.1567475"><ele>990.0</ele><time>2026-04-10T21:38:32.954Z</time></trkpt><trkpt lat="9.977432" lon="-84.156624"><ele>990.0</ele><time>2026-04-10T21:38:33.954Z</time></trkpt><trkpt lat="9.9773663" lon="-84.1565046"><ele>989.0</ele><time>2026-04-10T21:38:34.954Z</time></trkpt><trkpt lat="9.9773011" lon="-84.1563883"><ele>988.0</ele><time>2026-04-10T21:38:35.954Z</time></trkpt><trkpt lat="9.9772437" lon="-84.1562817"><ele>987.0</ele><time>2026-04-10T21:38:36.954Z</time></trkpt><trkpt lat="9.9771856" lon="-84.1561712"><ele>986.0</ele><time>2026-04-10T21:38:37.955Z</time></trkpt><trkpt lat="9.9771292" lon="-84.1560662"><ele>986.0</ele><time>2026-04-10T21:38:38.954Z</time></trkpt><trkpt lat="9.9770751" lon="-84.1559669"><ele>985.9999999999999</ele><time>2026-04-10T21:38:39.956Z</time></trkpt><trkpt lat="9.9770247" lon="-84.1558746"><ele>985.9999999999999</ele><time>2026-04-10T21:38:40.954Z</time></trkpt><trkpt lat="9.9769754" lon="-84.1557774"><ele>986.0</ele><time>2026-04-10T21:38:41.954Z</time></trkpt><trkpt lat="9.9769183" lon="-84.1556804"><ele>986.0</ele><time>2026-04-10T21:38:42.954Z</time></trkpt><trkpt lat="9.9768646" lon="-84.155583"><ele>986.75</ele><time>2026-04-10T21:38:43.954Z</time></trkpt><trkpt lat="9.9768072" lon="-84.1554758"><ele>987.5</ele><time>2026-04-10T21:38:44.954Z</time></trkpt><trkpt lat="9.9767374" lon="-84.1553509"><ele>988.25</ele><time>2026-04-10T21:38:45.953Z</time></trkpt><trkpt lat="9.9766758" lon="-84.1552379"><ele>989.0</ele><time>2026-04-10T21:38:46.954Z</time></trkpt><trkpt lat="9.9766167" lon="-84.155127"><ele>987.8000000000001</ele><time>2026-04-10T21:38:47.954Z</time></trkpt><trkpt lat="9.9765626" lon="-84.1550138"><ele>986.6000000000001</ele><time>2026-04-10T21:38:48.954Z</time></trkpt><trkpt lat="9.976514" lon="-84.1549143"><ele>985.4</ele><time>2026-04-10T21:38:49.953Z</time></trkpt><trkpt lat="9.9764648" lon="-84.15482"><ele>984.2</ele><time>2026-04-10T21:38:50.954Z</time></trkpt><trkpt lat="9.9764177" lon="-84.1547348"><ele>983.0</ele><time>2026-04-10T21:38:51.954Z</time></trkpt><trkpt lat="9.9763657" lon="-84.1546455"><ele>983.0</ele><time>2026-04-10T21:38:52.953Z</time></trkpt><trkpt lat="9.9763184" lon="-84.1545543"><ele>983.0</ele><time>2026-04-10T21:38:53.954Z</time></trkpt><trkpt lat="9.9762717" lon="-84.1544565"><ele>983.0</ele><time>2026-04-10T21:38:54.955Z</time></trkpt><trkpt lat="9.9762118" lon="-84.1543544"><ele>983.0</ele><time>2026-04-10T21:38:55.953Z</time></trkpt><trkpt lat="9.9761566" lon="-84.1542518"><ele>983.0</ele><time>2026-04-10T21:38:56.953Z</time></trkpt><trkpt lat="9.9761051" lon="-84.1541517"><ele>983.0000000000001</ele><time>2026-04-10T21:38:57.954Z</time></trkpt><trkpt lat="9.9760586" lon="-84.154068"><ele>983.0</ele><time>2026-04-10T21:38:58.954Z</time></trkpt><trkpt lat="9.9760118" lon="-84.1539875"><ele>983.0</ele><time>2026-04-10T21:38:59.955Z</time></trkpt><trkpt lat="9.9759732" lon="-84.153911"><ele>983.0</ele><time>2026-04-10T21:39:00.954Z</time></trkpt><trkpt lat="9.9759353" lon="-84.1538464"><ele>983.0000000000001</ele><time>2026-04-10T21:39:01.954Z</time></trkpt><trkpt lat="9.97588" lon="-84.1537627"><ele>983.0</ele><time>2026-04-10T21:39:03.954Z</time></trkpt><trkpt lat="9.975858" lon="-84.1536869"><ele>982.8333333333334</ele><time>2026-04-10T21:39:06.954Z</time></trkpt><trkpt lat="9.9758276" lon="-84.1535998"><ele>982.6666666666667</ele><time>2026-04-10T21:39:08.955Z</time></trkpt><trkpt lat="9.9758176" lon="-84.1535114"><ele>982.5</ele><time>2026-04-10T21:39:10.955Z</time></trkpt><trkpt lat="9.9758087" lon="-84.153433"><ele>982.3333333333333</ele><time>2026-04-10T21:39:12.954Z</time></trkpt><trkpt lat="9.9758063" lon="-84.1533681"><ele>982.1666666666666</ele><time>2026-04-10T21:39:14.955Z</time></trkpt><trkpt lat="9.975805" lon="-84.1533035"><ele>982.0</ele><time>2026-04-10T21:39:16.954Z</time></trkpt><trkpt lat="9.9758052" lon="-84.1532362"><ele>982.3333333333333</ele><time>2026-04-10T21:39:19.954Z</time></trkpt><trkpt lat="9.9758065" lon="-84.1531646"><ele>982.6666666666666</ele><time>2026-04-10T21:39:22.953Z</time></trkpt><trkpt lat="9.9758099" lon="-84.1531005"><ele>983.0</ele><time>2026-04-10T21:39:28.953Z</time></trkpt><trkpt lat="9.9757827" lon="-84.1530325"><ele>983.3333333333333</ele><time>2026-04-10T21:39:31.954Z</time></trkpt><trkpt lat="9.9757419" lon="-84.1529558"><ele>983.6666666666666</ele><time>2026-04-10T21:39:33.953Z</time></trkpt><trkpt lat="9.9756944" lon="-84.1528801"><ele>984.0</ele><time>2026-04-10T21:39:35.954Z</time></trkpt><trkpt lat="9.9756581" lon="-84.152808"><ele>984.0</ele><time>2026-04-10T21:39:37.954Z</time></trkpt><trkpt lat="9.9756099" lon="-84.1527212"><ele>984.0</ele><time>2026-04-10T21:39:39.954Z</time></trkpt><trkpt lat="9.9755601" lon="-84.1526526"><ele>984.0</ele><time>2026-04-10T21:39:41.955Z</time></trkpt><trkpt lat="9.9755147" lon="-84.1525809"><ele>984.0</ele><time>2026-04-10T21:39:44.954Z</time></trkpt><trkpt lat="9.9754652" lon="-84.1525014"><ele>984.0</ele><time>2026-04-10T21:39:46.954Z</time></trkpt><trkpt lat="9.9754315" lon="-84.1524238"><ele>984.0</ele><time>2026-04-10T21:39:48.954Z</time></trkpt><trkpt lat="9.9753832" lon="-84.1523296"><ele>984.4000000000001</ele><time>2026-04-10T21:39:50.954Z</time></trkpt><trkpt lat="9.9753258" lon="-84.1522193"><ele>984.8000000000001</ele><time>2026-04-10T21:39:52.954Z</time></trkpt><trkpt lat="9.9752616" lon="-84.1521206"><ele>985.1999999999999</ele><time>2026-04-10T21:39:54.954Z</time></trkpt><trkpt lat="9.9752235" lon="-84.1520433"><ele>985.5999999999999</ele><time>2026-04-10T21:39:56.954Z</time></trkpt><trkpt lat="9.9752008" lon="-84.1519833"><ele>986.0</ele><time>2026-04-10T21:39:58.954Z</time></trkpt><trkpt lat="9.9751541" lon="-84.151904"><ele>986.0000000000001</ele><time>2026-04-10T21:40:01.954Z</time></trkpt><trkpt lat="9.9751107" lon="-84.1518219"><ele>986.0</ele><time>2026-04-10T21:40:04.953Z</time></trkpt><trkpt lat="9.975071" lon="-84.1517466"><ele>986.0</ele><time>2026-04-10T21:40:07.954Z</time></trkpt><trkpt lat="9.9750348" lon="-84.1516798"><ele>986.0</ele><time>2026-04-10T21:40:10.953Z</time></trkpt><trkpt lat="9.9749992" lon="-84.151615"><ele>986.0000000000001</ele><time>2026-04-10T21:40:14.954Z</time></trkpt><trkpt lat="9.974963" lon="-84.1515499"><ele>986.0</ele><time>2026-04-10T21:40:17.954Z</time></trkpt><trkpt lat="9.9749234" lon="-84.151473"><ele>985.1999999999999</ele><time>2026-04-10T21:40:20.953Z</time></trkpt><trkpt lat="9.9748915" lon="-84.1514171"><ele>984.3999999999999</ele><time>2026-04-10T21:40:24.954Z</time></trkpt><trkpt lat="9.9748427" lon="-84.1513318"><ele>983.6</ele><time>2026-04-10T21:40:28.954Z</time></trkpt><trkpt lat="9.9747951" lon="-84.151259"><ele>982.8</ele><time>2026-04-10T21:40:30.954Z</time></trkpt><trkpt lat="9.9747425" lon="-84.1511609"><ele>982.0</ele><time>2026-04-10T21:40:32.953Z</time></trkpt><trkpt lat="9.9746797" lon="-84.1510585"><ele>981.9999999999999</ele><time>2026-04-10T21:40:34.953Z</time></trkpt><trkpt lat="9.9746382" lon="-84.150969"><ele>982.0</ele><time>2026-04-10T21:40:36.954Z</time></trkpt><trkpt lat="9.9746122" lon="-84.1509044"><ele>982.0</ele><time>2026-04-10T21:40:40.954Z</time></trkpt><trkpt lat="9.9745819" lon="-84.1508342"><ele>982.0</ele><time>2026-04-10T21:40:45.953Z</time></trkpt><trkpt lat="9.9745506" lon="-84.1507673"><ele>981.9999999999999</ele><time>2026-04-10T21:40:49.953Z</time></trkpt><trkpt lat="9.9745164" lon="-84.150703"><ele>982.0</ele><time>2026-04-10T21:40:52.954Z</time></trkpt><trkpt lat="9.9744859" lon="-84.1506268"><ele>982.4000000000001</ele><time>2026-04-10T21:40:56.955Z</time></trkpt><trkpt lat="9.9744585" lon="-84.1505491"><ele>982.8000000000001</ele><time>2026-04-10T21:40:59.953Z</time></trkpt><trkpt lat="9.9744179" lon="-84.1504733"><ele>983.2</ele><time>2026-04-10T21:41:01.954Z</time></trkpt><trkpt lat="9.9743664" lon="-84.1503766"><ele>983.6</ele><time>2026-04-10T21:41:03.955Z</time></trkpt><trkpt lat="9.9743211" lon="-84.1502758"><ele>984.0</ele><time>2026-04-10T21:41:05.953Z</time></trkpt><trkpt lat="9.9742815" lon="-84.1501873"><ele>984.0</ele><time>2026-04-10T21:41:07.954Z</time></trkpt><trkpt lat="9.9742412" lon="-84.1500998"><ele>984.0000000000001</ele><time>2026-04-10T21:41:10.954Z</time></trkpt><trkpt lat="9.9742069" lon="-84.150016"><ele>984.0000000000001</ele><time>2026-04-10T21:41:13.954Z</time></trkpt><trkpt lat="9.974178" lon="-84.1499409"><ele>984.0</ele><time>2026-04-10T21:41:15.954Z</time></trkpt><trkpt lat="9.9741306" lon="-84.1498379"><ele>984.0</ele><time>2026-04-10T21:41:17.953Z</time></trkpt><trkpt lat="9.9740914" lon="-84.1497472"><ele>984.6666666666666</ele><time>2026-04-10T21:41:19.954Z</time></trkpt><trkpt lat="9.9740703" lon="-84.149682"><ele>985.3333333333333</ele><time>2026-04-10T21:41:21.953Z</time></trkpt><trkpt lat="9.9740487" lon="-84.1496156"><ele>986.0</ele><time>2026-04-10T21:41:24.952Z</time></trkpt><trkpt lat="9.9740022" lon="-84.1495144"><ele>986.6666666666666</ele><time>2026-04-10T21:41:27.952Z</time></trkpt><trkpt lat="9.973959" lon="-84.1494164"><ele>987.3333333333333</ele><time>2026-04-10T21:41:29.954Z</time></trkpt><trkpt lat="9.9739357" lon="-84.149356"><ele>988.0</ele><time>2026-04-10T21:41:30.953Z</time></trkpt><trkpt lat="9.9739121" lon="-84.1492944"><ele>987.9999999999999</ele><time>2026-04-10T21:41:31.952Z</time></trkpt><trkpt lat="9.9738771" lon="-84.1492248"><ele>988.0</ele><time>2026-04-10T21:41:32.954Z</time></trkpt><trkpt lat="9.9738551" lon="-84.1491568"><ele>988.0</ele><time>2026-04-10T21:41:33.954Z</time></trkpt><trkpt lat="9.9738352" lon="-84.1490957"><ele>988.0</ele><time>2026-04-10T21:41:34.953Z</time></trkpt><trkpt lat="9.9738015" lon="-84.1489983"><ele>987.9999999999999</ele><time>2026-04-10T21:41:36.953Z</time></trkpt><trkpt lat="9.973757" lon="-84.148902"><ele>988.0</ele><time>2026-04-10T21:41:38.954Z</time></trkpt><trkpt lat="9.9737316" lon="-84.1488432"><ele>988.5714285714287</ele><time>2026-04-10T21:41:39.954Z</time></trkpt><trkpt lat="9.9737037" lon="-84.1487766"><ele>989.1428571428571</ele><time>2026-04-10T21:41:40.953Z</time></trkpt><trkpt lat="9.9736776" lon="-84.1487167"><ele>989.7142857142858</ele><time>2026-04-10T21:41:41.953Z</time></trkpt><trkpt lat="9.9736521" lon="-84.1486555"><ele>990.2857142857143</ele><time>2026-04-10T21:41:42.953Z</time></trkpt><trkpt lat="9.9736252" lon="-84.1485824"><ele>990.8571428571429</ele><time>2026-04-10T21:41:43.952Z</time></trkpt><trkpt lat="9.9736018" lon="-84.14851"><ele>991.4285714285714</ele><time>2026-04-10T21:41:44.953Z</time></trkpt><trkpt lat="9.9735727" lon="-84.1484289"><ele>992.0</ele><time>2026-04-10T21:41:45.954Z</time></trkpt><trkpt lat="9.9735435" lon="-84.1483458"><ele>992.0000000000001</ele><time>2026-04-10T21:41:46.953Z</time></trkpt><trkpt lat="9.9735134" lon="-84.1482589"><ele>992.0</ele><time>2026-04-10T21:41:47.954Z</time></trkpt><trkpt lat="9.9734825" lon="-84.1481723"><ele>992.0</ele><time>2026-04-10T21:41:48.952Z</time></trkpt><trkpt lat="9.9734469" lon="-84.1480815"><ele>992.0</ele><time>2026-04-10T21:41:49.953Z</time></trkpt><trkpt lat="9.973416" lon="-84.1479987"><ele>992.0000000000001</ele><time>2026-04-10T21:41:50.954Z</time></trkpt><trkpt lat="9.973389" lon="-84.1479267"><ele>992.0</ele><time>2026-04-10T21:41:51.954Z</time></trkpt><trkpt lat="9.9733626" lon="-84.1478513"><ele>992.0000000000001</ele><time>2026-04-10T21:41:52.954Z</time></trkpt><trkpt lat="9.9733355" lon="-84.1477777"><ele>992.0</ele><time>2026-04-10T21:41:53.954Z</time></trkpt><trkpt lat="9.9733037" lon="-84.1476962"><ele>992.0</ele><time>2026-04-10T21:41:54.953Z</time></trkpt><trkpt lat="9.9732717" lon="-84.1476177"><ele>992.0</ele><time>2026-04-10T21:41:55.954Z</time></trkpt><trkpt lat="9.9732412" lon="-84.1475436"><ele>992.0000000000001</ele><time>2026-04-10T21:41:56.954Z</time></trkpt><trkpt lat="9.9732117" lon="-84.1474646"><ele>992.0</ele><time>2026-04-10T21:41:57.954Z</time></trkpt><trkpt lat="9.9731782" lon="-84.1473828"><ele>993.2</ele><time>2026-04-10T21:41:58.952Z</time></trkpt><trkpt lat="9.973148" lon="-84.14729"><ele>994.4000000000001</ele><time>2026-04-10T21:41:59.953Z</time></trkpt><trkpt lat="9.9731162" lon="-84.147206"><ele>995.5999999999999</ele><time>2026-04-10T21:42:00.954Z</time></trkpt><trkpt lat="9.9730831" lon="-84.1471247"><ele>996.8</ele><time>2026-04-10T21:42:01.954Z</time></trkpt><trkpt lat="9.9730537" lon="-84.1470385"><ele>998.0</ele><time>2026-04-10T21:42:02.953Z</time></trkpt><trkpt lat="9.9730198" lon="-84.1469495"><ele>998.0</ele><time>2026-04-10T21:42:03.953Z</time></trkpt><trkpt lat="9.9729831" lon="-84.1468476"><ele>998.0</ele><time>2026-04-10T21:42:04.953Z</time></trkpt><trkpt lat="9.9729467" lon="-84.1467564"><ele>998.0</ele><time>2026-04-10T21:42:05.954Z</time></trkpt><trkpt lat="9.9729092" lon="-84.1466653"><ele>998.0</ele><time>2026-04-10T21:42:06.954Z</time></trkpt><trkpt lat="9.972877" lon="-84.146586"><ele>998.0</ele><time>2026-04-10T21:42:07.953Z</time></trkpt><trkpt lat="9.972844" lon="-84.1464917"><ele>998.2</ele><time>2026-04-10T21:42:08.954Z</time></trkpt><trkpt lat="9.9728065" lon="-84.1463901"><ele>998.4</ele><time>2026-04-10T21:42:09.953Z</time></trkpt><trkpt lat="9.9727698" lon="-84.1462872"><ele>998.6000000000001</ele><time>2026-04-10T21:42:10.952Z</time></trkpt><trkpt lat="9.9727323" lon="-84.1461881"><ele>998.8000000000001</ele><time>2026-04-10T21:42:11.954Z</time></trkpt><trkpt lat="9.9726964" lon="-84.1460973"><ele>999.0</ele><time>2026-04-10T21:42:12.953Z</time></trkpt><trkpt lat="9.972665" lon="-84.1460182"><ele>999.0</ele><time>2026-04-10T21:42:13.953Z</time></trkpt><trkpt lat="9.9726366" lon="-84.1459499"><ele>999.0000000000001</ele><time>2026-04-10T21:42:14.954Z</time></trkpt><trkpt lat="9.9725948" lon="-84.1458534"><ele>999.0000000000001</ele><time>2026-04-10T21:42:16.953Z</time></trkpt><trkpt lat="9.9725589" lon="-84.145763"><ele>999.0</ele><time>2026-04-10T21:42:18.954Z</time></trkpt><trkpt lat="9.9725198" lon="-84.1456667"><ele>999.0</ele><time>2026-04-10T21:42:20.953Z</time></trkpt><trkpt lat="9.9724818" lon="-84.1455494"><ele>998.1666666666666</ele><time>2026-04-10T21:42:22.953Z</time></trkpt><trkpt lat="9.9724632" lon="-84.1454873"><ele>997.3333333333333</ele><time>2026-04-10T21:42:23.954Z</time></trkpt><trkpt lat="9.9724211" lon="-84.1453792"><ele>996.5</ele><time>2026-04-10T21:42:25.954Z</time></trkpt><trkpt lat="9.9723865" lon="-84.1452908"><ele>995.6666666666666</ele><time>2026-04-10T21:42:27.955Z</time></trkpt><trkpt lat="9.9723541" lon="-84.1451974"><ele>994.8333333333333</ele><time>2026-04-10T21:42:29.954Z</time></trkpt><trkpt lat="9.9723275" lon="-84.1451351"><ele>994.0</ele><time>2026-04-10T21:42:30.953Z</time></trkpt><trkpt lat="9.9723004" lon="-84.1450764"><ele>993.9999999999999</ele><time>2026-04-10T21:42:31.953Z</time></trkpt><trkpt lat="9.9722635" lon="-84.1449744"><ele>994.0</ele><time>2026-04-10T21:42:33.953Z</time></trkpt><trkpt lat="9.9722406" lon="-84.1449076"><ele>994.0</ele><time>2026-04-10T21:42:35.954Z</time></trkpt><trkpt lat="9.9722131" lon="-84.144834"><ele>994.0</ele><time>2026-04-10T21:42:38.953Z</time></trkpt><trkpt lat="9.972176" lon="-84.1447455"><ele>993.9999999999999</ele><time>2026-04-10T21:42:40.955Z</time></trkpt><trkpt lat="9.9721417" lon="-84.1446712"><ele>994.0</ele><time>2026-04-10T21:42:43.954Z</time></trkpt><trkpt lat="9.9721125" lon="-84.144603"><ele>993.9999999999999</ele><time>2026-04-10T21:42:46.953Z</time></trkpt><trkpt lat="9.9720857" lon="-84.1445373"><ele>994.0</ele><time>2026-04-10T21:42:49.953Z</time></trkpt><trkpt lat="9.9720563" lon="-84.1444478"><ele>994.0</ele><time>2026-04-10T21:42:52.953Z</time></trkpt><trkpt lat="9.9720272" lon="-84.1443703"><ele>994.0</ele><time>2026-04-10T21:42:54.954Z</time></trkpt><trkpt lat="9.9720093" lon="-84.1443004"><ele>993.9999999999999</ele><time>2026-04-10T21:42:57.954Z</time></trkpt><trkpt lat="9.9719962" lon="-84.1442187"><ele>994.0</ele><time>2026-04-10T21:43:02.953Z</time></trkpt><trkpt lat="9.9719614" lon="-84.1441298"><ele>993.4000000000001</ele><time>2026-04-10T21:43:04.954Z</time></trkpt><trkpt lat="9.9719201" lon="-84.1440264"><ele>992.8000000000001</ele><time>2026-04-10T21:43:06.954Z</time></trkpt><trkpt lat="9.9718739" lon="-84.1439199"><ele>992.1999999999999</ele><time>2026-04-10T21:43:08.955Z</time></trkpt><trkpt lat="9.971849" lon="-84.1438523"><ele>991.5999999999999</ele><time>2026-04-10T21:43:10.954Z</time></trkpt><trkpt lat="9.9718053" lon="-84.1437601"><ele>991.0</ele><time>2026-04-10T21:43:13.954Z</time></trkpt><trkpt lat="9.9717624" lon="-84.1436562"><ele>991.0</ele><time>2026-04-10T21:43:15.953Z</time></trkpt><trkpt lat="9.9717285" lon="-84.1435554"><ele>990.9999999999999</ele><time>2026-04-10T21:43:17.953Z</time></trkpt><trkpt lat="9.9716961" lon="-84.1434414"><ele>990.9999999999999</ele><time>2026-04-10T21:43:19.955Z</time></trkpt><trkpt lat="9.9716657" lon="-84.1433785"><ele>991.0</ele><time>2026-04-10T21:43:20.952Z</time></trkpt><trkpt lat="9.9716254" lon="-84.1432753"><ele>991.0</ele><time>2026-04-10T21:43:22.954Z</time></trkpt><trkpt lat="9.9715977" lon="-84.1431993"><ele>991.0</ele><time>2026-04-10T21:43:24.954Z</time></trkpt><trkpt lat="9.971574" lon="-84.1431396"><ele>990.9999999999999</ele><time>2026-04-10T21:43:26.954Z</time></trkpt><trkpt lat="9.9715412" lon="-84.1430373"><ele>990.9999999999999</ele><time>2026-04-10T21:43:28.956Z</time></trkpt><trkpt lat="9.9714994" lon="-84.1429334"><ele>991.0</ele><time>2026-04-10T21:43:30.953Z</time></trkpt><trkpt lat="9.9714576" lon="-84.1428403"><ele>991.0</ele><time>2026-04-10T21:43:32.953Z</time></trkpt><trkpt lat="9.9714278" lon="-84.1427547"><ele>991.0</ele><time>2026-04-10T21:43:34.954Z</time></trkpt><trkpt lat="9.9713878" lon="-84.1426475"><ele>990.9999999999999</ele><time>2026-04-10T21:43:36.954Z</time></trkpt><trkpt lat="9.9713458" lon="-84.1425521"><ele>990.9999999999999</ele><time>2026-04-10T21:43:38.952Z</time></trkpt><trkpt lat="9.9713093" lon="-84.1424582"><ele>991.0</ele><time>2026-04-10T21:43:40.954Z</time></trkpt><trkpt lat="9.9712654" lon="-84.1423566"><ele>991.0</ele><time>2026-04-10T21:43:42.954Z</time></trkpt><trkpt lat="9.9712342" lon="-84.1422686"><ele>991.6666666666666</ele><time>2026-04-10T21:43:44.953Z</time></trkpt><trkpt lat="9.9712065" lon="-84.1421925"><ele>992.3333333333333</ele><time>2026-04-10T21:43:46.954Z</time></trkpt><trkpt lat="9.9711799" lon="-84.1421166"><ele>993.0</ele><time>2026-04-10T21:43:49.953Z</time></trkpt><trkpt lat="9.9711572" lon="-84.1420472"><ele>993.6666666666667</ele><time>2026-04-10T21:43:52.954Z</time></trkpt><trkpt lat="9.9711327" lon="-84.1419765"><ele>994.3333333333334</ele><time>2026-04-10T21:43:56.953Z</time></trkpt><trkpt lat="9.9711002" lon="-84.1419025"><ele>995.0</ele><time>2026-04-10T21:43:58.953Z</time></trkpt><trkpt lat="9.9710659" lon="-84.1418005"><ele>995.0</ele><time>2026-04-10T21:44:00.953Z</time></trkpt><trkpt lat="9.9710085" lon="-84.1416992"><ele>995.0</ele><time>2026-04-10T21:44:02.952Z</time></trkpt><trkpt lat="9.9709643" lon="-84.1415864"><ele>995.0</ele><time>2026-04-10T21:44:04.953Z</time></trkpt><trkpt lat="9.970931" lon="-84.141491"><ele>995.0</ele><time>2026-04-10T21:44:06.954Z</time></trkpt><trkpt lat="9.9709022" lon="-84.1414196"><ele>995.0</ele><time>2026-04-10T21:44:08.954Z</time></trkpt><trkpt lat="9.9708594" lon="-84.1413221"><ele>998.4</ele><time>2026-04-10T21:44:11.953Z</time></trkpt><trkpt lat="9.9708135" lon="-84.1412173"><ele>1001.8</ele><time>2026-04-10T21:44:13.953Z</time></trkpt><trkpt lat="9.9707637" lon="-84.1411107"><ele>1005.2</ele><time>2026-04-10T21:44:15.953Z</time></trkpt><trkpt lat="9.9707258" lon="-84.1410226"><ele>1008.6</ele><time>2026-04-10T21:44:17.953Z</time></trkpt><trkpt lat="9.9706868" lon="-84.1409436"><ele>1012.0</ele><time>2026-04-10T21:44:19.953Z</time></trkpt><trkpt lat="9.9706545" lon="-84.1408714"><ele>1011.9999999999999</ele><time>2026-04-10T21:44:21.954Z</time></trkpt><trkpt lat="9.9706245" lon="-84.140788"><ele>1012.0</ele><time>2026-04-10T21:44:23.953Z</time></trkpt><trkpt lat="9.9705914" lon="-84.1407245"><ele>1012.0</ele><time>2026-04-10T21:44:26.953Z</time></trkpt><trkpt lat="9.9705566" lon="-84.1406529"><ele>1012.0</ele><time>2026-04-10T21:44:30.953Z</time></trkpt><trkpt lat="9.9705255" lon="-84.1405905"><ele>1011.9999999999999</ele><time>2026-04-10T21:44:33.952Z</time></trkpt><trkpt lat="9.9704973" lon="-84.1405309"><ele>1012.0</ele><time>2026-04-10T21:44:36.954Z</time></trkpt><trkpt lat="9.9704624" lon="-84.1404575"><ele>1012.0000000000001</ele><time>2026-04-10T21:44:39.953Z</time></trkpt><trkpt lat="9.9704334" lon="-84.1403956"><ele>1012.0</ele><time>2026-04-10T21:44:43.952Z</time></trkpt><trkpt lat="9.970401" lon="-84.1403323"><ele>1012.0000000000001</ele><time>2026-04-10T21:44:47.952Z</time></trkpt><trkpt lat="9.9703677" lon="-84.1402609"><ele>1012.0000000000001</ele><time>2026-04-10T21:45:00.953Z</time></trkpt><trkpt lat="9.97034" lon="-84.1401982"><ele>1012.0</ele><time>2026-04-10T21:45:03.953Z</time></trkpt><trkpt lat="9.9703091" lon="-84.1401308"><ele>1012.0000000000001</ele><time>2026-04-10T21:45:06.953Z</time></trkpt><trkpt lat="9.9702681" lon="-84.1400497"><ele>1012.0000000000001</ele><time>2026-04-10T21:45:09.952Z</time></trkpt><trkpt lat="9.9702331" lon="-84.1399801"><ele>1011.9999999999999</ele><time>2026-04-10T21:45:12.952Z</time></trkpt><trkpt lat="9.9701848" lon="-84.1399019"><ele>1012.0</ele><time>2026-04-10T21:45:15.953Z</time></trkpt><trkpt lat="9.9701494" lon="-84.1398333"><ele>1012.0</ele><time>2026-04-10T21:45:17.952Z</time></trkpt><trkpt lat="9.9701154" lon="-84.1397636"><ele>1012.0</ele><time>2026-04-10T21:45:19.953Z</time></trkpt><trkpt lat="9.9700642" lon="-84.1396531"><ele>1011.9999999999999</ele><time>2026-04-10T21:45:21.953Z</time></trkpt><trkpt lat="9.9700342" lon="-84.1395931"><ele>1012.0</ele><time>2026-04-10T21:45:22.953Z</time></trkpt><trkpt lat="9.9700034" lon="-84.1395319"><ele>1013.0000000000001</ele><time>2026-04-10T21:45:23.953Z</time></trkpt><trkpt lat="9.9699716" lon="-84.1394661"><ele>1014.0</ele><time>2026-04-10T21:45:24.953Z</time></trkpt><trkpt lat="9.9699382" lon="-84.1394025"><ele>1015.0000000000001</ele><time>2026-04-10T21:45:25.952Z</time></trkpt><trkpt lat="9.9699041" lon="-84.1393408"><ele>1016.0000000000001</ele><time>2026-04-10T21:45:26.953Z</time></trkpt><trkpt lat="9.9698669" lon="-84.1392839"><ele>1017.0</ele><time>2026-04-10T21:45:27.953Z</time></trkpt><trkpt lat="9.9698311" lon="-84.1392259"><ele>1018.0000000000001</ele><time>2026-04-10T21:45:28.952Z</time></trkpt><trkpt lat="9.9697902" lon="-84.1391578"><ele>1019.0000000000001</ele><time>2026-04-10T21:45:30.953Z</time></trkpt><trkpt lat="9.9697484" lon="-84.1390957"><ele>1019.6666666666667</ele><time>2026-04-10T21:45:35.953Z</time></trkpt><trkpt lat="9.9697203" lon="-84.139038"><ele>1020.3333333333334</ele><time>2026-04-10T21:45:40.952Z</time></trkpt><trkpt lat="9.9696754" lon="-84.1389672"><ele>1021.0</ele><time>2026-04-10T21:45:42.953Z</time></trkpt><trkpt lat="9.9696438" lon="-84.138905"><ele>1021.6666666666667</ele><time>2026-04-10T21:45:43.953Z</time></trkpt><trkpt lat="9.9696" lon="-84.1388124"><ele>1022.3333333333334</ele><time>2026-04-10T21:45:45.952Z</time></trkpt><trkpt lat="9.9695632" lon="-84.1387333"><ele>1023.0</ele><time>2026-04-10T21:45:47.953Z</time></trkpt><trkpt lat="9.9695236" lon="-84.1386702"><ele>1023.0</ele><time>2026-04-10T21:45:49.953Z</time></trkpt><trkpt lat="9.9694903" lon="-84.1386006"><ele>1023.0</ele><time>2026-04-10T21:45:51.952Z</time></trkpt><trkpt lat="9.9694542" lon="-84.1385396"><ele>1023.0</ele><time>2026-04-10T21:45:53.953Z</time></trkpt><trkpt lat="9.9694135" lon="-84.1384702"><ele>1023.0</ele><time>2026-04-10T21:45:56.953Z</time></trkpt><trkpt lat="9.9693774" lon="-84.1383939"><ele>1023.0</ele><time>2026-04-10T21:45:58.953Z</time></trkpt><trkpt lat="9.9693385" lon="-84.1383222"><ele>1023.0</ele><time>2026-04-10T21:46:00.953Z</time></trkpt><trkpt lat="9.9693079" lon="-84.1382606"><ele>1023.3333333333334</ele><time>2026-04-10T21:46:03.953Z</time></trkpt><trkpt lat="9.9692762" lon="-84.1381978"><ele>1023.6666666666667</ele><time>2026-04-10T21:46:07.952Z</time></trkpt><trkpt lat="9.9692289" lon="-84.1381079"><ele>1024.0</ele><time>2026-04-10T21:46:10.953Z</time></trkpt><trkpt lat="9.9691864" lon="-84.1380319"><ele>1024.3333333333335</ele><time>2026-04-10T21:46:12.952Z</time></trkpt><trkpt lat="9.9691458" lon="-84.1379552"><ele>1024.6666666666667</ele><time>2026-04-10T21:46:14.953Z</time></trkpt><trkpt lat="9.9691074" lon="-84.1378849"><ele>1025.0</ele><time>2026-04-10T21:46:16.953Z</time></trkpt><trkpt lat="9.9690712" lon="-84.1378245"><ele>1024.4285714285713</ele><time>2026-04-10T21:46:18.952Z</time></trkpt><trkpt lat="9.9690372" lon="-84.137761"><ele>1023.8571428571429</ele><time>2026-04-10T21:46:20.953Z</time></trkpt><trkpt lat="9.9690077" lon="-84.1376924"><ele>1023.2857142857142</ele><time>2026-04-10T21:46:22.952Z</time></trkpt><trkpt lat="9.9689735" lon="-84.1376221"><ele>1022.7142857142857</ele><time>2026-04-10T21:46:25.953Z</time></trkpt><trkpt lat="9.9689394" lon="-84.1375671"><ele>1022.1428571428571</ele><time>2026-04-10T21:46:28.952Z</time></trkpt><trkpt lat="9.968898" lon="-84.1375019"><ele>1021.5714285714286</ele><time>2026-04-10T21:46:32.952Z</time></trkpt><trkpt lat="9.9688627" lon="-84.1374481"><ele>1021.0</ele><time>2026-04-10T21:46:35.951Z</time></trkpt><trkpt lat="9.9688297" lon="-84.1373905"><ele>1021.4</ele><time>2026-04-10T21:46:38.953Z</time></trkpt><trkpt lat="9.9687971" lon="-84.1373328"><ele>1021.8</ele><time>2026-04-10T21:46:40.953Z</time></trkpt><trkpt lat="9.9687492" lon="-84.1372452"><ele>1022.1999999999999</ele><time>2026-04-10T21:46:42.953Z</time></trkpt><trkpt lat="9.9687053" lon="-84.1371585"><ele>1022.5999999999999</ele><time>2026-04-10T21:46:44.952Z</time></trkpt><trkpt lat="9.968654" lon="-84.1370666"><ele>1023.0</ele><time>2026-04-10T21:46:46.953Z</time></trkpt><trkpt lat="9.9686056" lon="-84.1369816"><ele>1023.0</ele><time>2026-04-10T21:46:48.954Z</time></trkpt><trkpt lat="9.9685516" lon="-84.1368735"><ele>1023.0</ele><time>2026-04-10T21:46:50.954Z</time></trkpt><trkpt lat="9.9684872" lon="-84.1367836"><ele>1023.0</ele><time>2026-04-10T21:46:52.952Z</time></trkpt><trkpt lat="9.9684331" lon="-84.1367001"><ele>1023.0</ele><time>2026-04-10T21:46:54.953Z</time></trkpt><trkpt lat="9.9683867" lon="-84.1366108"><ele>1023.0</ele><time>2026-04-10T21:46:56.952Z</time></trkpt><trkpt lat="9.9683369" lon="-84.1365077"><ele>1022.8333333333334</ele><time>2026-04-10T21:46:58.953Z</time></trkpt><trkpt lat="9.9682944" lon="-84.1364142"><ele>1022.6666666666667</ele><time>2026-04-10T21:47:00.954Z</time></trkpt><trkpt lat="9.9682504" lon="-84.1363365"><ele>1022.5</ele><time>2026-04-10T21:47:02.953Z</time></trkpt><trkpt lat="9.9682062" lon="-84.1362552"><ele>1022.3333333333334</ele><time>2026-04-10T21:47:05.953Z</time></trkpt><trkpt lat="9.9681594" lon="-84.1361754"><ele>1022.1666666666667</ele><time>2026-04-10T21:47:08.952Z</time></trkpt><trkpt lat="9.9681328" lon="-84.1361142"><ele>1022.0</ele><time>2026-04-10T21:47:10.953Z</time></trkpt><trkpt lat="9.9680882" lon="-84.1360463"><ele>1022.0000000000001</ele><time>2026-04-10T21:47:13.952Z</time></trkpt><trkpt lat="9.9680462" lon="-84.1359776"><ele>1022.0</ele><time>2026-04-10T21:47:15.953Z</time></trkpt><trkpt lat="9.9680132" lon="-84.1359159"><ele>1022.0</ele><time>2026-04-10T21:47:17.951Z</time></trkpt><trkpt lat="9.9679797" lon="-84.1358537"><ele>1022.0</ele><time>2026-04-10T21:47:19.952Z</time></trkpt><trkpt lat="9.9679313" lon="-84.1357832"><ele>1022.0000000000001</ele><time>2026-04-10T21:47:21.953Z</time></trkpt><trkpt lat="9.9678912" lon="-84.1357256"><ele>1022.0</ele><time>2026-04-10T21:47:22.952Z</time></trkpt><trkpt lat="9.9678417" lon="-84.1356578"><ele>1022.4000000000001</ele><time>2026-04-10T21:47:23.952Z</time></trkpt><trkpt lat="9.9677875" lon="-84.1355595"><ele>1022.8000000000001</ele><time>2026-04-10T21:47:24.954Z</time></trkpt><trkpt lat="9.9677353" lon="-84.1354605"><ele>1023.2</ele><time>2026-04-10T21:47:25.953Z</time></trkpt><trkpt lat="9.9676828" lon="-84.1353662"><ele>1023.6</ele><time>2026-04-10T21:47:26.954Z</time></trkpt><trkpt lat="9.9676333" lon="-84.1352704"><ele>1024.0</ele><time>2026-04-10T21:47:27.953Z</time></trkpt><trkpt lat="9.9675897" lon="-84.135185"><ele>1024.0</ele><time>2026-04-10T21:47:28.952Z</time></trkpt><trkpt lat="9.9675559" lon="-84.1351134"><ele>1024.0</ele><time>2026-04-10T21:47:29.952Z</time></trkpt><trkpt lat="9.9675061" lon="-84.1350046"><ele>1024.0</ele><time>2026-04-10T21:47:31.952Z</time></trkpt><trkpt lat="9.9674764" lon="-84.1349173"><ele>1024.0</ele><time>2026-04-10T21:47:33.953Z</time></trkpt><trkpt lat="9.9674236" lon="-84.1348262"><ele>1024.0</ele><time>2026-04-10T21:47:35.952Z</time></trkpt><trkpt lat="9.9673889" lon="-84.1347605"><ele>1018.4999999999999</ele><time>2026-04-10T21:47:36.952Z</time></trkpt><trkpt lat="9.9673473" lon="-84.1346926"><ele>1013.0</ele><time>2026-04-10T21:47:37.951Z</time></trkpt><trkpt lat="9.967311" lon="-84.1346198"><ele>1007.5</ele><time>2026-04-10T21:47:38.951Z</time></trkpt><trkpt lat="9.9672738" lon="-84.1345432"><ele>1002.0</ele><time>2026-04-10T21:47:39.952Z</time></trkpt><trkpt lat="9.9672371" lon="-84.1344746"><ele>996.4999999999999</ele><time>2026-04-10T21:47:40.952Z</time></trkpt><trkpt lat="9.9671994" lon="-84.1344154"><ele>991.0</ele><time>2026-04-10T21:47:41.951Z</time></trkpt><trkpt lat="9.9671684" lon="-84.1343578"><ele>990.9999999999999</ele><time>2026-04-10T21:47:42.953Z</time></trkpt><trkpt lat="9.9671386" lon="-84.1342942"><ele>991.0</ele><time>2026-04-10T21:47:43.953Z</time></trkpt><trkpt lat="9.9671024" lon="-84.1342306"><ele>991.0</ele><time>2026-04-10T21:47:44.953Z</time></trkpt><trkpt lat="9.9670463" lon="-84.1341239"><ele>991.0</ele><time>2026-04-10T21:47:46.952Z</time></trkpt><trkpt lat="9.9669868" lon="-84.1340228"><ele>990.9999999999999</ele><time>2026-04-10T21:47:48.952Z</time></trkpt><trkpt lat="9.966957" lon="-84.1339644"><ele>991.0</ele><time>2026-04-10T21:47:49.951Z</time></trkpt><trkpt lat="9.9669251" lon="-84.1339047"><ele>992.0</ele><time>2026-04-10T21:47:50.953Z</time></trkpt><trkpt lat="9.9668902" lon="-84.133846"><ele>992.9999999999999</ele><time>2026-04-10T21:47:51.952Z</time></trkpt><trkpt lat="9.9668379" lon="-84.1337411"><ele>993.9999999999999</ele><time>2026-04-10T21:47:53.952Z</time></trkpt><trkpt lat="9.9667896" lon="-84.1336426"><ele>995.0</ele><time>2026-04-10T21:47:55.953Z</time></trkpt><trkpt lat="9.9667314" lon="-84.133526"><ele>996.0</ele><time>2026-04-10T21:47:57.952Z</time></trkpt><trkpt lat="9.9666691" lon="-84.1334235"><ele>996.0</ele><time>2026-04-10T21:47:59.952Z</time></trkpt><trkpt lat="9.9666236" lon="-84.1333377"><ele>995.9999999999999</ele><time>2026-04-10T21:48:01.953Z</time></trkpt><trkpt lat="9.9665659" lon="-84.1332362"><ele>995.9999999999999</ele><time>2026-04-10T21:48:03.952Z</time></trkpt><trkpt lat="9.9665104" lon="-84.1331341"><ele>996.0</ele><time>2026-04-10T21:48:05.953Z</time></trkpt><trkpt lat="9.9664633" lon="-84.1330531"><ele>996.0</ele><time>2026-04-10T21:48:07.953Z</time></trkpt><trkpt lat="9.9664324" lon="-84.1329752"><ele>995.5999999999999</ele><time>2026-04-10T21:48:09.953Z</time></trkpt><trkpt lat="9.966387" lon="-84.1328931"><ele>995.1999999999999</ele><time>2026-04-10T21:48:11.952Z</time></trkpt><trkpt lat="9.966345" lon="-84.1328214"><ele>994.8000000000001</ele><time>2026-04-10T21:48:13.953Z</time></trkpt><trkpt lat="9.9662838" lon="-84.1327189"><ele>994.4000000000001</ele><time>2026-04-10T21:48:15.953Z</time></trkpt><trkpt lat="9.9662249" lon="-84.1326221"><ele>994.0</ele><time>2026-04-10T21:48:17.952Z</time></trkpt><trkpt lat="9.9661676" lon="-84.1325228"><ele>993.9999999999999</ele><time>2026-04-10T21:48:19.952Z</time></trkpt><trkpt lat="9.9661284" lon="-84.1324494"><ele>994.0</ele><time>2026-04-10T21:48:20.953Z</time></trkpt><trkpt lat="9.9660929" lon="-84.132368"><ele>994.0</ele><time>2026-04-10T21:48:21.953Z</time></trkpt><trkpt lat="9.9660505" lon="-84.1322834"><ele>994.0</ele><time>2026-04-10T21:48:22.951Z</time></trkpt><trkpt lat="9.9660104" lon="-84.1322071"><ele>993.9999999999999</ele><time>2026-04-10T21:48:23.952Z</time></trkpt><trkpt lat="9.9659677" lon="-84.1321375"><ele>994.0</ele><time>2026-04-10T21:48:24.952Z</time></trkpt><trkpt lat="9.9659269" lon="-84.1320673"><ele>992.3333333333333</ele><time>2026-04-10T21:48:25.954Z</time></trkpt><trkpt lat="9.9658868" lon="-84.1319893"><ele>990.6666666666666</ele><time>2026-04-10T21:48:26.951Z</time></trkpt><trkpt lat="9.9658403" lon="-84.1319109"><ele>989.0</ele><time>2026-04-10T21:48:27.952Z</time></trkpt><trkpt lat="9.9657948" lon="-84.1318297"><ele>987.3333333333333</ele><time>2026-04-10T21:48:28.952Z</time></trkpt><trkpt lat="9.9657554" lon="-84.1317526"><ele>985.6666666666666</ele><time>2026-04-10T21:48:29.952Z</time></trkpt><trkpt lat="9.9657181" lon="-84.1316817"><ele>984.0</ele><time>2026-04-10T21:48:30.952Z</time></trkpt><trkpt lat="9.9656791" lon="-84.1316133"><ele>985.8333333333334</ele><time>2026-04-10T21:48:31.952Z</time></trkpt><trkpt lat="9.9656412" lon="-84.1315442"><ele>987.6666666666667</ele><time>2026-04-10T21:48:32.953Z</time></trkpt><trkpt lat="9.9656007" lon="-84.1314774"><ele>989.5</ele><time>2026-04-10T21:48:33.952Z</time></trkpt><trkpt lat="9.965566" lon="-84.1314132"><ele>991.3333333333334</ele><time>2026-04-10T21:48:34.952Z</time></trkpt><trkpt lat="9.9655382" lon="-84.131353"><ele>993.1666666666667</ele><time>2026-04-10T21:48:35.951Z</time></trkpt><trkpt lat="9.9655028" lon="-84.1313"><ele>995.0</ele><time>2026-04-10T21:48:36.953Z</time></trkpt><trkpt lat="9.9654479" lon="-84.1311939"><ele>995.0000000000001</ele><time>2026-04-10T21:48:38.952Z</time></trkpt><trkpt lat="9.9653983" lon="-84.1311043"><ele>995.0</ele><time>2026-04-10T21:48:40.952Z</time></trkpt><trkpt lat="9.9653439" lon="-84.1309982"><ele>995.0</ele><time>2026-04-10T21:48:42.952Z</time></trkpt><trkpt lat="9.9653093" lon="-84.1309393"><ele>995.0</ele><time>2026-04-10T21:48:43.952Z</time></trkpt><trkpt lat="9.9652774" lon="-84.1308817"><ele>995.0000000000001</ele><time>2026-04-10T21:48:44.952Z</time></trkpt><trkpt lat="9.9652422" lon="-84.1308219"><ele>995.0</ele><time>2026-04-10T21:48:45.952Z</time></trkpt><trkpt lat="9.9652106" lon="-84.1307475"><ele>994.5000000000001</ele><time>2026-04-10T21:48:46.952Z</time></trkpt><trkpt lat="9.965168" lon="-84.1306782"><ele>994.0</ele><time>2026-04-10T21:48:47.951Z</time></trkpt><trkpt lat="9.9651338" lon="-84.1306032"><ele>993.5</ele><time>2026-04-10T21:48:48.952Z</time></trkpt><trkpt lat="9.9650965" lon="-84.1305288"><ele>993.0</ele><time>2026-04-10T21:48:49.952Z</time></trkpt><trkpt lat="9.9650554" lon="-84.13046"><ele>992.5000000000001</ele><time>2026-04-10T21:48:50.953Z</time></trkpt><trkpt lat="9.9650187" lon="-84.1304"><ele>992.0</ele><time>2026-04-10T21:48:51.951Z</time></trkpt><trkpt lat="9.9649761" lon="-84.1303037"><ele>997.4000000000001</ele><time>2026-04-10T21:48:53.953Z</time></trkpt><trkpt lat="9.9649425" lon="-84.1302452"><ele>1002.8000000000001</ele><time>2026-04-10T21:48:54.952Z</time></trkpt><trkpt lat="9.9649092" lon="-84.1301812"><ele>1008.2</ele><time>2026-04-10T21:48:55.952Z</time></trkpt><trkpt lat="9.9648486" lon="-84.1300733"><ele>1013.6</ele><time>2026-04-10T21:48:57.952Z</time></trkpt><trkpt lat="9.9647877" lon="-84.1299724"><ele>1019.0</ele><time>2026-04-10T21:48:59.952Z</time></trkpt><trkpt lat="9.9647353" lon="-84.1298683"><ele>1019.8000000000001</ele><time>2026-04-10T21:49:01.953Z</time></trkpt><trkpt lat="9.9646836" lon="-84.1297651"><ele>1020.6000000000001</ele><time>2026-04-10T21:49:03.952Z</time></trkpt><trkpt lat="9.9646357" lon="-84.1296664"><ele>1021.4</ele><time>2026-04-10T21:49:05.952Z</time></trkpt><trkpt lat="9.9645694" lon="-84.1295647"><ele>1022.2</ele><time>2026-04-10T21:49:07.952Z</time></trkpt><trkpt lat="9.9645399" lon="-84.1294987"><ele>1023.0</ele><time>2026-04-10T21:49:08.953Z</time></trkpt><trkpt lat="9.9645004" lon="-84.1294375"><ele>1023.0</ele><time>2026-04-10T21:49:09.953Z</time></trkpt><trkpt lat="9.9644658" lon="-84.129379"><ele>1023.0</ele><time>2026-04-10T21:49:10.951Z</time></trkpt><trkpt lat="9.9644142" lon="-84.1292874"><ele>1023.0</ele><time>2026-04-10T21:49:12.953Z</time></trkpt><trkpt lat="9.9643633" lon="-84.1291762"><ele>1023.0</ele><time>2026-04-10T21:49:14.952Z</time></trkpt><trkpt lat="9.964305" lon="-84.1290736"><ele>1023.0</ele><time>2026-04-10T21:49:16.952Z</time></trkpt><trkpt lat="9.9642684" lon="-84.1289963"><ele>1023.4</ele><time>2026-04-10T21:49:18.953Z</time></trkpt><trkpt lat="9.9642402" lon="-84.1289391"><ele>1023.8</ele><time>2026-04-10T21:49:20.952Z</time></trkpt><trkpt lat="9.9641999" lon="-84.1288642"><ele>1024.2</ele><time>2026-04-10T21:49:32.952Z</time></trkpt><trkpt lat="9.9641676" lon="-84.1288049"><ele>1024.6</ele><time>2026-04-10T21:49:34.951Z</time></trkpt><trkpt lat="9.9641089" lon="-84.1286966"><ele>1025.0</ele><time>2026-04-10T21:49:36.952Z</time></trkpt><trkpt lat="9.9640467" lon="-84.1285966"><ele>1026.4</ele><time>2026-04-10T21:49:38.952Z</time></trkpt><trkpt lat="9.9639849" lon="-84.1284855"><ele>1027.8</ele><time>2026-04-10T21:49:40.953Z</time></trkpt><trkpt lat="9.9639403" lon="-84.1283789"><ele>1029.2</ele><time>2026-04-10T21:49:42.952Z</time></trkpt><trkpt lat="9.9638876" lon="-84.1282806"><ele>1030.6</ele><time>2026-04-10T21:49:44.952Z</time></trkpt><trkpt lat="9.9638471" lon="-84.1282153"><ele>1032.0</ele><time>2026-04-10T21:49:46.953Z</time></trkpt><trkpt lat="9.9638159" lon="-84.1281494"><ele>1032.0</ele><time>2026-04-10T21:49:49.953Z</time></trkpt><trkpt lat="9.9637827" lon="-84.128095"><ele>1032.0</ele><time>2026-04-10T21:49:51.953Z</time></trkpt><trkpt lat="9.9637482" lon="-84.1280297"><ele>1032.0</ele><time>2026-04-10T21:49:52.952Z</time></trkpt><trkpt lat="9.9636848" lon="-84.1279367"><ele>1032.0</ele><time>2026-04-10T21:49:54.952Z</time></trkpt><trkpt lat="9.963632" lon="-84.1278414"><ele>1032.0</ele><time>2026-04-10T21:49:56.952Z</time></trkpt><trkpt lat="9.9635895" lon="-84.1277584"><ele>1032.0</ele><time>2026-04-10T21:49:58.952Z</time></trkpt><trkpt lat="9.9635579" lon="-84.1276848"><ele>1031.9999999999998</ele><time>2026-04-10T21:50:01.952Z</time></trkpt><trkpt lat="9.963514" lon="-84.1276137"><ele>1032.0</ele><time>2026-04-10T21:50:10.952Z</time></trkpt><trkpt lat="9.9634739" lon="-84.1275452"><ele>1032.0</ele><time>2026-04-10T21:50:13.952Z</time></trkpt><trkpt lat="9.9634399" lon="-84.127488"><ele>1032.0</ele><time>2026-04-10T21:50:16.952Z</time></trkpt><trkpt lat="9.9634094" lon="-84.1274234"><ele>1032.0</ele><time>2026-04-10T21:50:22.952Z</time></trkpt><trkpt lat="9.9633627" lon="-84.1273534"><ele>1031.9999999999998</ele><time>2026-04-10T21:50:27.953Z</time></trkpt><trkpt lat="9.9633276" lon="-84.1272945"><ele>1032.0</ele><time>2026-04-10T21:50:30.952Z</time></trkpt><trkpt lat="9.9632907" lon="-84.1272161"><ele>1033.1666666666667</ele><time>2026-04-10T21:50:33.952Z</time></trkpt><trkpt lat="9.9632576" lon="-84.1271469"><ele>1034.3333333333333</ele><time>2026-04-10T21:50:37.952Z</time></trkpt><trkpt lat="9.9632227" lon="-84.1270793"><ele>1035.5</ele><time>2026-04-10T21:50:42.952Z</time></trkpt><trkpt lat="9.9631873" lon="-84.1270165"><ele>1036.6666666666665</ele><time>2026-04-10T21:50:47.953Z</time></trkpt><trkpt lat="9.9631371" lon="-84.1269506"><ele>1037.8333333333333</ele><time>2026-04-10T21:51:01.952Z</time></trkpt><trkpt lat="9.9630961" lon="-84.1268894"><ele>1039.0</ele><time>2026-04-10T21:51:04.952Z</time></trkpt><trkpt lat="9.9630409" lon="-84.1268005"><ele>1039.0</ele><time>2026-04-10T21:51:07.951Z</time></trkpt><trkpt lat="9.9630017" lon="-84.1267277"><ele>1039.0</ele><time>2026-04-10T21:51:09.952Z</time></trkpt><trkpt lat="9.9629724" lon="-84.1266679"><ele>1039.0</ele><time>2026-04-10T21:51:12.951Z</time></trkpt><trkpt lat="9.9629404" lon="-84.126607"><ele>1039.0</ele><time>2026-04-10T21:51:14.952Z</time></trkpt><trkpt lat="9.9628946" lon="-84.1265244"><ele>1039.0</ele><time>2026-04-10T21:51:16.952Z</time></trkpt><trkpt lat="9.9628394" lon="-84.1264137"><ele>1039.0</ele><time>2026-04-10T21:51:18.952Z</time></trkpt><trkpt lat="9.9628055" lon="-84.1263528"><ele>1038.8</ele><time>2026-04-10T21:51:19.952Z</time></trkpt><trkpt lat="9.9627745" lon="-84.1262917"><ele>1038.6000000000001</ele><time>2026-04-10T21:51:20.952Z</time></trkpt><trkpt lat="9.9627403" lon="-84.1262366"><ele>1038.4</ele><time>2026-04-10T21:51:21.952Z</time></trkpt><trkpt lat="9.962684" lon="-84.1261329"><ele>1038.2</ele><time>2026-04-10T21:51:23.952Z</time></trkpt><trkpt lat="9.9626371" lon="-84.1260325"><ele>1038.0</ele><time>2026-04-10T21:51:25.953Z</time></trkpt><trkpt lat="9.962589" lon="-84.125944"><ele>1038.0</ele><time>2026-04-10T21:51:27.951Z</time></trkpt><trkpt lat="9.9625424" lon="-84.12586"><ele>1038.0</ele><time>2026-04-10T21:51:29.952Z</time></trkpt><trkpt lat="9.9624922" lon="-84.1257761"><ele>1038.0</ele><time>2026-04-10T21:51:31.951Z</time></trkpt><trkpt lat="9.9624642" lon="-84.1257187"><ele>1038.0</ele><time>2026-04-10T21:51:33.951Z</time></trkpt><trkpt lat="9.9624238" lon="-84.1256556"><ele>1038.0</ele><time>2026-04-10T21:51:35.952Z</time></trkpt><trkpt lat="9.9623712" lon="-84.1255604"><ele>1038.0</ele><time>2026-04-10T21:51:37.951Z</time></trkpt><trkpt lat="9.9623201" lon="-84.1254705"><ele>1038.6666666666667</ele><time>2026-04-10T21:51:39.952Z</time></trkpt><trkpt lat="9.9622766" lon="-84.1253944"><ele>1039.3333333333333</ele><time>2026-04-10T21:51:41.952Z</time></trkpt><trkpt lat="9.9622395" lon="-84.1253287"><ele>1040.0</ele><time>2026-04-10T21:51:43.952Z</time></trkpt><trkpt lat="9.9622048" lon="-84.1252535"><ele>1040.6666666666665</ele><time>2026-04-10T21:51:45.952Z</time></trkpt><trkpt lat="9.9621648" lon="-84.1251677"><ele>1041.3333333333333</ele><time>2026-04-10T21:51:47.952Z</time></trkpt><trkpt lat="9.962128" lon="-84.1250885"><ele>1042.0</ele><time>2026-04-10T21:51:49.951Z</time></trkpt><trkpt lat="9.962084" lon="-84.1250059"><ele>1042.0</ele><time>2026-04-10T21:51:51.952Z</time></trkpt><trkpt lat="9.9620289" lon="-84.1249213"><ele>1042.0</ele><time>2026-04-10T21:51:53.952Z</time></trkpt><trkpt lat="9.9619889" lon="-84.1248419"><ele>1042.0</ele><time>2026-04-10T21:51:56.951Z</time></trkpt><trkpt lat="9.9619522" lon="-84.1247776"><ele>1042.0</ele><time>2026-04-10T21:52:01.952Z</time></trkpt><trkpt lat="9.9619152" lon="-84.124717"><ele>1042.0</ele><time>2026-04-10T21:52:03.952Z</time></trkpt><trkpt lat="9.9618806" lon="-84.1246521"><ele>1042.0</ele><time>2026-04-10T21:52:05.952Z</time></trkpt><trkpt lat="9.9618466" lon="-84.1245812"><ele>1042.4</ele><time>2026-04-10T21:52:07.951Z</time></trkpt><trkpt lat="9.9618234" lon="-84.1245215"><ele>1042.8000000000002</ele><time>2026-04-10T21:52:08.952Z</time></trkpt><trkpt lat="9.961762" lon="-84.1244142"><ele>1043.2</ele><time>2026-04-10T21:52:10.952Z</time></trkpt><trkpt lat="9.9617008" lon="-84.1243137"><ele>1043.6000000000001</ele><time>2026-04-10T21:52:12.951Z</time></trkpt><trkpt lat="9.9616506" lon="-84.1242189"><ele>1044.0</ele><time>2026-04-10T21:52:14.952Z</time></trkpt><trkpt lat="9.9616089" lon="-84.124139"><ele>1044.1666666666667</ele><time>2026-04-10T21:52:16.95Z</time></trkpt><trkpt lat="9.9615713" lon="-84.1240629"><ele>1044.3333333333333</ele><time>2026-04-10T21:52:19.95Z</time></trkpt><trkpt lat="9.9615253" lon="-84.1239881"><ele>1044.5</ele><time>2026-04-10T21:52:22.951Z</time></trkpt><trkpt lat="9.9614847" lon="-84.1239204"><ele>1044.6666666666665</ele><time>2026-04-10T21:52:23.95Z</time></trkpt><trkpt lat="9.961449" lon="-84.1238609"><ele>1044.8333333333333</ele><time>2026-04-10T21:52:24.952Z</time></trkpt><trkpt lat="9.9614158" lon="-84.1237941"><ele>1045.0</ele><time>2026-04-10T21:52:25.951Z</time></trkpt><trkpt lat="9.9613855" lon="-84.123733"><ele>1045.0</ele><time>2026-04-10T21:52:26.952Z</time></trkpt><trkpt lat="9.9613465" lon="-84.1236641"><ele>1045.0</ele><time>2026-04-10T21:52:27.951Z</time></trkpt><trkpt lat="9.9613166" lon="-84.1235982"><ele>1045.0</ele><time>2026-04-10T21:52:28.952Z</time></trkpt><trkpt lat="9.961283" lon="-84.1235351"><ele>1045.0</ele><time>2026-04-10T21:52:29.952Z</time></trkpt><trkpt lat="9.9612264" lon="-84.1234385"><ele>1045.0</ele><time>2026-04-10T21:52:31.952Z</time></trkpt><trkpt lat="9.9611793" lon="-84.1233725"><ele>1045.0</ele><time>2026-04-10T21:52:35.952Z</time></trkpt><trkpt lat="9.9611337" lon="-84.1233044"><ele>1045.0</ele><time>2026-04-10T21:52:40.952Z</time></trkpt><trkpt lat="9.9611028" lon="-84.1232407"><ele>1045.0</ele><time>2026-04-10T21:52:43.951Z</time></trkpt><trkpt lat="9.9610573" lon="-84.1231448"><ele>1045.0</ele><time>2026-04-10T21:52:45.952Z</time></trkpt><trkpt lat="9.9610138" lon="-84.1230638"><ele>1045.0</ele><time>2026-04-10T21:52:47.951Z</time></trkpt><trkpt lat="9.9609671" lon="-84.1229691"><ele>1045.0</ele><time>2026-04-10T21:52:49.952Z</time></trkpt><trkpt lat="9.9609097" lon="-84.1228589"><ele>1045.0</ele><time>2026-04-10T21:52:51.952Z</time></trkpt><trkpt lat="9.9608565" lon="-84.1227444"><ele>1045.0</ele><time>2026-04-10T21:52:53.951Z</time></trkpt><trkpt lat="9.9608262" lon="-84.1226878"><ele>1045.0</ele><time>2026-04-10T21:52:54.951Z</time></trkpt><trkpt lat="9.9607983" lon="-84.12263"><ele>1045.0</ele><time>2026-04-10T21:52:55.952Z</time></trkpt><trkpt lat="9.9607376" lon="-84.1225293"><ele>1045.0</ele><time>2026-04-10T21:52:57.952Z</time></trkpt><trkpt lat="9.9606772" lon="-84.1224371"><ele>1044.6666666666665</ele><time>2026-04-10T21:52:59.951Z</time></trkpt><trkpt lat="9.9606164" lon="-84.1223348"><ele>1044.3333333333333</ele><time>2026-04-10T21:53:01.952Z</time></trkpt><trkpt lat="9.9605845" lon="-84.1222794"><ele>1044.0</ele><time>2026-04-10T21:53:02.951Z</time></trkpt><trkpt lat="9.9605422" lon="-84.1222178"><ele>1043.6666666666667</ele><time>2026-04-10T21:53:03.951Z</time></trkpt><trkpt lat="9.9605081" lon="-84.1221462"><ele>1043.3333333333335</ele><time>2026-04-10T21:53:04.951Z</time></trkpt><trkpt lat="9.9604768" lon="-84.1220812"><ele>1043.0</ele><time>2026-04-10T21:53:05.951Z</time></trkpt><trkpt lat="9.9604432" lon="-84.122027"><ele>1043.0</ele><time>2026-04-10T21:53:06.952Z</time></trkpt><trkpt lat="9.9603863" lon="-84.1219339"><ele>1043.0</ele><time>2026-04-10T21:53:08.951Z</time></trkpt><trkpt lat="9.9603471" lon="-84.1218598"><ele>1043.0</ele><time>2026-04-10T21:53:10.953Z</time></trkpt><trkpt lat="9.960305" lon="-84.1217807"><ele>1043.0</ele><time>2026-04-10T21:53:13.951Z</time></trkpt><trkpt lat="9.9602691" lon="-84.1217068"><ele>1043.0</ele><time>2026-04-10T21:53:15.952Z</time></trkpt><trkpt lat="9.9602204" lon="-84.121592"><ele>1043.4</ele><time>2026-04-10T21:53:17.951Z</time></trkpt><trkpt lat="9.9601685" lon="-84.121486"><ele>1043.8</ele><time>2026-04-10T21:53:19.95Z</time></trkpt><trkpt lat="9.960121" lon="-84.1213812"><ele>1044.2</ele><time>2026-04-10T21:53:21.952Z</time></trkpt><trkpt lat="9.9600661" lon="-84.1212972"><ele>1044.6</ele><time>2026-04-10T21:53:23.951Z</time></trkpt><trkpt lat="9.9600219" lon="-84.1212089"><ele>1045.0</ele><time>2026-04-10T21:53:25.95Z</time></trkpt><trkpt lat="9.959978" lon="-84.1211313"><ele>1045.857142857143</ele><time>2026-04-10T21:53:27.95Z</time></trkpt><trkpt lat="9.9599318" lon="-84.1210587"><ele>1046.7142857142856</ele><time>2026-04-10T21:53:30.953Z</time></trkpt><trkpt lat="9.9598962" lon="-84.1210011"><ele>1047.5714285714284</ele><time>2026-04-10T21:53:33.95Z</time></trkpt><trkpt lat="9.9598653" lon="-84.1209445"><ele>1048.4285714285713</ele><time>2026-04-10T21:53:36.951Z</time></trkpt><trkpt lat="9.9598288" lon="-84.1208807"><ele>1049.2857142857142</ele><time>2026-04-10T21:53:39.951Z</time></trkpt><trkpt lat="9.9597886" lon="-84.1208232"><ele>1050.142857142857</ele><time>2026-04-10T21:53:42.95Z</time></trkpt><trkpt lat="9.9597556" lon="-84.1207687"><ele>1051.0</ele><time>2026-04-10T21:53:46.952Z</time></trkpt><trkpt lat="9.9597171" lon="-84.1206934"><ele>1051.3333333333333</ele><time>2026-04-10T21:53:50.951Z</time></trkpt><trkpt lat="9.9596804" lon="-84.1206277"><ele>1051.6666666666665</ele><time>2026-04-10T21:53:53.95Z</time></trkpt><trkpt lat="9.9596359" lon="-84.1205479"><ele>1052.0</ele><time>2026-04-10T21:53:56.951Z</time></trkpt><trkpt lat="9.9595991" lon="-84.1204836"><ele>1052.3333333333333</ele><time>2026-04-10T21:53:58.951Z</time></trkpt><trkpt lat="9.959559" lon="-84.1204101"><ele>1052.6666666666667</ele><time>2026-04-10T21:54:00.951Z</time></trkpt><trkpt lat="9.9595056" lon="-84.1203161"><ele>1053.0</ele><time>2026-04-10T21:54:02.952Z</time></trkpt><trkpt lat="9.9594531" lon="-84.12021"><ele>1053.0</ele><time>2026-04-10T21:54:04.951Z</time></trkpt><trkpt lat="9.9593966" lon="-84.1201048"><ele>1053.0</ele><time>2026-04-10T21:54:06.951Z</time></trkpt><trkpt lat="9.9593657" lon="-84.1200442"><ele>1053.0</ele><time>2026-04-10T21:54:07.952Z</time></trkpt><trkpt lat="9.9593346" lon="-84.119981"><ele>1053.0</ele><time>2026-04-10T21:54:08.951Z</time></trkpt><trkpt lat="9.9593003" lon="-84.1199108"><ele>1053.0</ele><time>2026-04-10T21:54:09.951Z</time></trkpt><trkpt lat="9.9592632" lon="-84.1198375"><ele>1053.0</ele><time>2026-04-10T21:54:10.951Z</time></trkpt><trkpt lat="9.9592255" lon="-84.1197629"><ele>1053.5714285714284</ele><time>2026-04-10T21:54:11.951Z</time></trkpt><trkpt lat="9.9591897" lon="-84.1196849"><ele>1054.142857142857</ele><time>2026-04-10T21:54:12.951Z</time></trkpt><trkpt lat="9.9591522" lon="-84.1196171"><ele>1054.7142857142858</ele><time>2026-04-10T21:54:13.95Z</time></trkpt><trkpt lat="9.9591158" lon="-84.1195518"><ele>1055.2857142857142</ele><time>2026-04-10T21:54:14.951Z</time></trkpt><trkpt lat="9.9590808" lon="-84.1194891"><ele>1055.857142857143</ele><time>2026-04-10T21:54:15.952Z</time></trkpt><trkpt lat="9.9590431" lon="-84.1194301"><ele>1056.4285714285713</ele><time>2026-04-10T21:54:16.952Z</time></trkpt><trkpt lat="9.9590096" lon="-84.1193725"><ele>1057.0</ele><time>2026-04-10T21:54:17.952Z</time></trkpt><trkpt lat="9.958958" lon="-84.1192716"><ele>1057.0</ele><time>2026-04-10T21:54:19.951Z</time></trkpt><trkpt lat="9.9589046" lon="-84.1191636"><ele>1057.0</ele><time>2026-04-10T21:54:21.951Z</time></trkpt><trkpt lat="9.9588502" lon="-84.1190631"><ele>1057.0</ele><time>2026-04-10T21:54:23.95Z</time></trkpt><trkpt lat="9.9587978" lon="-84.1189722"><ele>1057.0</ele><time>2026-04-10T21:54:25.951Z</time></trkpt><trkpt lat="9.95875" lon="-84.1188844"><ele>1057.0</ele><time>2026-04-10T21:54:27.951Z</time></trkpt><trkpt lat="9.9587085" lon="-84.1188134"><ele>1057.2</ele><time>2026-04-10T21:54:29.951Z</time></trkpt><trkpt lat="9.9586697" lon="-84.1187466"><ele>1057.4</ele><time>2026-04-10T21:54:31.951Z</time></trkpt><trkpt lat="9.9586069" lon="-84.1186551"><ele>1057.6</ele><time>2026-04-10T21:54:33.951Z</time></trkpt><trkpt lat="9.9585225" lon="-84.1185606"><ele>1057.8</ele><time>2026-04-10T21:54:35.951Z</time></trkpt><trkpt lat="9.9584738" lon="-84.1184975"><ele>1058.0</ele><time>2026-04-10T21:54:36.951Z</time></trkpt><trkpt lat="9.9584282" lon="-84.1184265"><ele>1058.0</ele><time>2026-04-10T21:54:37.952Z</time></trkpt><trkpt lat="9.9583892" lon="-84.1183663"><ele>1058.0</ele><time>2026-04-10T21:54:38.951Z</time></trkpt><trkpt lat="9.9583342" lon="-84.1182957"><ele>1058.0</ele><time>2026-04-10T21:54:40.952Z</time></trkpt><trkpt lat="9.9582894" lon="-84.1182423"><ele>1058.0</ele><time>2026-04-10T21:54:41.951Z</time></trkpt><trkpt lat="9.9582518" lon="-84.1181842"><ele>1058.0</ele><time>2026-04-10T21:54:42.951Z</time></trkpt><trkpt lat="9.9582144" lon="-84.1181197"><ele>1058.0</ele><time>2026-04-10T21:54:43.951Z</time></trkpt><trkpt lat="9.9581727" lon="-84.1180577"><ele>1058.0</ele><time>2026-04-10T21:54:44.95Z</time></trkpt><trkpt lat="9.9581017" lon="-84.1179626"><ele>1058.4</ele><time>2026-04-10T21:54:46.951Z</time></trkpt><trkpt lat="9.9580661" lon="-84.1179078"><ele>1058.8</ele><time>2026-04-10T21:54:47.951Z</time></trkpt><trkpt lat="9.958005" lon="-84.1178165"><ele>1059.2</ele><time>2026-04-10T21:54:49.951Z</time></trkpt><trkpt lat="9.9579422" lon="-84.1177362"><ele>1059.6</ele><time>2026-04-10T21:54:51.951Z</time></trkpt><trkpt lat="9.9578599" lon="-84.1176237"><ele>1060.0</ele><time>2026-04-10T21:54:53.951Z</time></trkpt><trkpt lat="9.9578011" lon="-84.1175476"><ele>1060.0</ele><time>2026-04-10T21:54:54.951Z</time></trkpt><trkpt lat="9.9577428" lon="-84.1174785"><ele>1060.0</ele><time>2026-04-10T21:54:55.95Z</time></trkpt><trkpt lat="9.9576921" lon="-84.1174145"><ele>1060.0</ele><time>2026-04-10T21:54:56.95Z</time></trkpt><trkpt lat="9.957638" lon="-84.117353"><ele>1060.0</ele><time>2026-04-10T21:54:57.951Z</time></trkpt><trkpt lat="9.9575878" lon="-84.1172899"><ele>1060.0</ele><time>2026-04-10T21:54:58.951Z</time></trkpt><trkpt lat="9.9575304" lon="-84.1172306"><ele>1060.0</ele><time>2026-04-10T21:54:59.951Z</time></trkpt><trkpt lat="9.9574703" lon="-84.1171596"><ele>1060.5</ele><time>2026-04-10T21:55:00.951Z</time></trkpt><trkpt lat="9.9573976" lon="-84.117098"><ele>1061.0</ele><time>2026-04-10T21:55:01.951Z</time></trkpt><trkpt lat="9.9573393" lon="-84.1170341"><ele>1061.5</ele><time>2026-04-10T21:55:02.951Z</time></trkpt><trkpt lat="9.957292" lon="-84.1169871"><ele>1062.0</ele><time>2026-04-10T21:55:03.951Z</time></trkpt><trkpt lat="9.9572502" lon="-84.116937"><ele>1062.5</ele><time>2026-04-10T21:55:04.95Z</time></trkpt><trkpt lat="9.9571859" lon="-84.1168636"><ele>1063.0</ele><time>2026-04-10T21:55:06.951Z</time></trkpt><trkpt lat="9.9571378" lon="-84.1167985"><ele>1063.0</ele><time>2026-04-10T21:55:08.951Z</time></trkpt><trkpt lat="9.9570708" lon="-84.1167382"><ele>1063.0</ele><time>2026-04-10T21:55:10.952Z</time></trkpt><trkpt lat="9.9569929" lon="-84.116665"><ele>1063.0</ele><time>2026-04-10T21:55:12.951Z</time></trkpt><trkpt lat="9.9569075" lon="-84.1165816"><ele>1063.0</ele><time>2026-04-10T21:55:14.951Z</time></trkpt><trkpt lat="9.9568584" lon="-84.1165329"><ele>1063.0</ele><time>2026-04-10T21:55:15.952Z</time></trkpt><trkpt lat="9.9568057" lon="-84.1164871"><ele>1063.142857142857</ele><time>2026-04-10T21:55:16.951Z</time></trkpt><trkpt lat="9.9567517" lon="-84.1164397"><ele>1063.2857142857142</ele><time>2026-04-10T21:55:17.95Z</time></trkpt><trkpt lat="9.9567017" lon="-84.116399"><ele>1063.4285714285716</ele><time>2026-04-10T21:55:18.951Z</time></trkpt><trkpt lat="9.9566509" lon="-84.1163472"><ele>1063.5714285714284</ele><time>2026-04-10T21:55:19.951Z</time></trkpt><trkpt lat="9.9565948" lon="-84.1163056"><ele>1063.7142857142858</ele><time>2026-04-10T21:55:20.951Z</time></trkpt><trkpt lat="9.9565434" lon="-84.116262"><ele>1063.857142857143</ele><time>2026-04-10T21:55:21.95Z</time></trkpt><trkpt lat="9.9564667" lon="-84.1161985"><ele>1064.0</ele><time>2026-04-10T21:55:23.951Z</time></trkpt><trkpt lat="9.9563762" lon="-84.1161273"><ele>1064.6000000000001</ele><time>2026-04-10T21:55:25.951Z</time></trkpt><trkpt lat="9.9562856" lon="-84.1160545"><ele>1065.2</ele><time>2026-04-10T21:55:27.951Z</time></trkpt><trkpt lat="9.9562112" lon="-84.1159974"><ele>1065.8000000000002</ele><time>2026-04-10T21:55:29.95Z</time></trkpt><trkpt lat="9.956137" lon="-84.1159541"><ele>1066.4</ele><time>2026-04-10T21:55:31.951Z</time></trkpt><trkpt lat="9.956055" lon="-84.1159015"><ele>1067.0</ele><time>2026-04-10T21:55:33.952Z</time></trkpt><trkpt lat="9.9559722" lon="-84.1158381"><ele>1067.0</ele><time>2026-04-10T21:55:35.951Z</time></trkpt><trkpt lat="9.9559026" lon="-84.1157914"><ele>1067.0</ele><time>2026-04-10T21:55:37.951Z</time></trkpt><trkpt lat="9.9558383" lon="-84.1157412"><ele>1067.0</ele><time>2026-04-10T21:55:39.95Z</time></trkpt><trkpt lat="9.9557782" lon="-84.1156973"><ele>1067.0</ele><time>2026-04-10T21:55:41.952Z</time></trkpt><trkpt lat="9.9557151" lon="-84.1156557"><ele>1067.0</ele><time>2026-04-10T21:55:43.951Z</time></trkpt><trkpt lat="9.9556604" lon="-84.1156177"><ele>1067.0</ele><time>2026-04-10T21:55:45.951Z</time></trkpt><trkpt lat="9.9555819" lon="-84.1155637"><ele>1067.6</ele><time>2026-04-10T21:55:48.951Z</time></trkpt><trkpt lat="9.9555056" lon="-84.1155103"><ele>1068.2</ele><time>2026-04-10T21:55:50.951Z</time></trkpt><trkpt lat="9.9554193" lon="-84.1154476"><ele>1068.8</ele><time>2026-04-10T21:55:52.952Z</time></trkpt><trkpt lat="9.9553258" lon="-84.1153841"><ele>1069.4</ele><time>2026-04-10T21:55:54.951Z</time></trkpt><trkpt lat="9.9552509" lon="-84.1153299"><ele>1070.0</ele><time>2026-04-10T21:55:56.95Z</time></trkpt><trkpt lat="9.9551777" lon="-84.1152799"><ele>1070.0</ele><time>2026-04-10T21:55:58.951Z</time></trkpt><trkpt lat="9.9551183" lon="-84.1152443"><ele>1070.0</ele><time>2026-04-10T21:56:00.951Z</time></trkpt><trkpt lat="9.9550527" lon="-84.1151962"><ele>1070.0</ele><time>2026-04-10T21:56:03.951Z</time></trkpt><trkpt lat="9.9549501" lon="-84.1151288"><ele>1070.0</ele><time>2026-04-10T21:56:05.951Z</time></trkpt><trkpt lat="9.9548879" lon="-84.1150934"><ele>1070.0</ele><time>2026-04-10T21:56:06.951Z</time></trkpt><trkpt lat="9.9548297" lon="-84.1150415"><ele>1070.0</ele><time>2026-04-10T21:56:07.951Z</time></trkpt><trkpt lat="9.9547747" lon="-84.1150012"><ele>1070.1666666666667</ele><time>2026-04-10T21:56:08.95Z</time></trkpt><trkpt lat="9.9547188" lon="-84.1149659"><ele>1070.3333333333335</ele><time>2026-04-10T21:56:09.951Z</time></trkpt><trkpt lat="9.9546305" lon="-84.1149033"><ele>1070.5</ele><time>2026-04-10T21:56:11.95Z</time></trkpt><trkpt lat="9.9545611" lon="-84.1148548"><ele>1070.6666666666667</ele><time>2026-04-10T21:56:13.951Z</time></trkpt><trkpt lat="9.9545128" lon="-84.1148102"><ele>1070.8333333333333</ele><time>2026-04-10T21:56:14.951Z</time></trkpt><trkpt lat="9.9544517" lon="-84.1147646"><ele>1071.0</ele><time>2026-04-10T21:56:15.951Z</time></trkpt><trkpt lat="9.9543792" lon="-84.1147109"><ele>1071.0</ele><time>2026-04-10T21:56:16.952Z</time></trkpt><trkpt lat="9.9543131" lon="-84.1146676"><ele>1071.0</ele><time>2026-04-10T21:56:17.951Z</time></trkpt><trkpt lat="9.954242" lon="-84.1146165"><ele>1071.0</ele><time>2026-04-10T21:56:18.951Z</time></trkpt><trkpt lat="9.9541681" lon="-84.1145624"><ele>1071.0</ele><time>2026-04-10T21:56:19.951Z</time></trkpt><trkpt lat="9.9540935" lon="-84.1145166"><ele>1071.0</ele><time>2026-04-10T21:56:20.951Z</time></trkpt><trkpt lat="9.9540303" lon="-84.1144741"><ele>1071.0</ele><time>2026-04-10T21:56:21.951Z</time></trkpt><trkpt lat="9.9539706" lon="-84.1144315"><ele>1071.1666666666667</ele><time>2026-04-10T21:56:22.951Z</time></trkpt><trkpt lat="9.953906" lon="-84.1143838"><ele>1071.3333333333333</ele><time>2026-04-10T21:56:23.951Z</time></trkpt><trkpt lat="9.953839" lon="-84.114343"><ele>1071.5</ele><time>2026-04-10T21:56:24.951Z</time></trkpt><trkpt lat="9.9537681" lon="-84.1142858"><ele>1071.6666666666665</ele><time>2026-04-10T21:56:25.951Z</time></trkpt><trkpt lat="9.9536868" lon="-84.1142356"><ele>1071.8333333333333</ele><time>2026-04-10T21:56:26.951Z</time></trkpt><trkpt lat="9.9536099" lon="-84.1141821"><ele>1072.0</ele><time>2026-04-10T21:56:27.951Z</time></trkpt><trkpt lat="9.9535337" lon="-84.1141319"><ele>1072.0</ele><time>2026-04-10T21:56:28.951Z</time></trkpt><trkpt lat="9.9534615" lon="-84.1140892"><ele>1072.0</ele><time>2026-04-10T21:56:29.952Z</time></trkpt><trkpt lat="9.9533884" lon="-84.1140387"><ele>1072.0</ele><time>2026-04-10T21:56:30.951Z</time></trkpt><trkpt lat="9.9533133" lon="-84.1139874"><ele>1072.0</ele><time>2026-04-10T21:56:31.949Z</time></trkpt><trkpt lat="9.9532362" lon="-84.1139337"><ele>1072.0</ele><time>2026-04-10T21:56:32.95Z</time></trkpt><trkpt lat="9.9531591" lon="-84.1138788"><ele>1072.5</ele><time>2026-04-10T21:56:33.951Z</time></trkpt><trkpt lat="9.9530862" lon="-84.1138271"><ele>1073.0</ele><time>2026-04-10T21:56:34.951Z</time></trkpt><trkpt lat="9.9530153" lon="-84.113775"><ele>1073.5</ele><time>2026-04-10T21:56:35.95Z</time></trkpt><trkpt lat="9.9529401" lon="-84.1137251"><ele>1074.0</ele><time>2026-04-10T21:56:36.951Z</time></trkpt><trkpt lat="9.9528719" lon="-84.1136859"><ele>1074.5</ele><time>2026-04-10T21:56:37.95Z</time></trkpt><trkpt lat="9.9528098" lon="-84.1136494"><ele>1075.0</ele><time>2026-04-10T21:56:38.951Z</time></trkpt><trkpt lat="9.9527506" lon="-84.1136091"><ele>1075.0</ele><time>2026-04-10T21:56:39.951Z</time></trkpt><trkpt lat="9.9526884" lon="-84.113568"><ele>1075.0</ele><time>2026-04-10T21:56:40.95Z</time></trkpt><trkpt lat="9.9526313" lon="-84.1135251"><ele>1075.0</ele><time>2026-04-10T21:56:41.95Z</time></trkpt><trkpt lat="9.95254" lon="-84.1134643"><ele>1075.0</ele><time>2026-04-10T21:56:43.949Z</time></trkpt><trkpt lat="9.9524762" lon="-84.113417"><ele>1075.0</ele><time>2026-04-10T21:56:44.952Z</time></trkpt><trkpt lat="9.9524086" lon="-84.1133658"><ele>1075.0</ele><time>2026-04-10T21:56:45.951Z</time></trkpt><trkpt lat="9.9523343" lon="-84.1133114"><ele>1075.0</ele><time>2026-04-10T21:56:46.95Z</time></trkpt><trkpt lat="9.9522468" lon="-84.1132481"><ele>1075.0</ele><time>2026-04-10T21:56:47.95Z</time></trkpt><trkpt lat="9.952166" lon="-84.1131955"><ele>1075.0</ele><time>2026-04-10T21:56:48.95Z</time></trkpt><trkpt lat="9.9520951" lon="-84.1131458"><ele>1075.0</ele><time>2026-04-10T21:56:49.952Z</time></trkpt><trkpt lat="9.9520319" lon="-84.1131036"><ele>1075.0</ele><time>2026-04-10T21:56:50.95Z</time></trkpt><trkpt lat="9.951969" lon="-84.11306"><ele>1075.0</ele><time>2026-04-10T21:56:51.951Z</time></trkpt><trkpt lat="9.9518998" lon="-84.113021"><ele>1075.0</ele><time>2026-04-10T21:56:52.95Z</time></trkpt><trkpt lat="9.9518337" lon="-84.1129782"><ele>1075.0</ele><time>2026-04-10T21:56:53.95Z</time></trkpt><trkpt lat="9.9517853" lon="-84.112937"><ele>1075.0</ele><time>2026-04-10T21:56:54.951Z</time></trkpt><trkpt lat="9.951684" lon="-84.1128721"><ele>1075.0</ele><time>2026-04-10T21:56:56.952Z</time></trkpt><trkpt lat="9.9516279" lon="-84.1128263"><ele>1075.0</ele><time>2026-04-10T21:56:57.95Z</time></trkpt><trkpt lat="9.9515635" lon="-84.1127876"><ele>1075.0</ele><time>2026-04-10T21:56:58.95Z</time></trkpt><trkpt lat="9.9514964" lon="-84.1127446"><ele>1075.4285714285716</ele><time>2026-04-10T21:56:59.951Z</time></trkpt><trkpt lat="9.9514259" lon="-84.1126974"><ele>1075.857142857143</ele><time>2026-04-10T21:57:00.951Z</time></trkpt><trkpt lat="9.9513699" lon="-84.1126589"><ele>1076.2857142857142</ele><time>2026-04-10T21:57:01.951Z</time></trkpt><trkpt lat="9.9513153" lon="-84.112624"><ele>1076.7142857142858</ele><time>2026-04-10T21:57:02.951Z</time></trkpt><trkpt lat="9.9512582" lon="-84.112587"><ele>1077.142857142857</ele><time>2026-04-10T21:57:03.95Z</time></trkpt><trkpt lat="9.951199" lon="-84.1125478"><ele>1077.5714285714287</ele><time>2026-04-10T21:57:04.95Z</time></trkpt><trkpt lat="9.9511225" lon="-84.1124965"><ele>1078.0</ele><time>2026-04-10T21:57:05.952Z</time></trkpt><trkpt lat="9.9510507" lon="-84.112449"><ele>1078.3333333333333</ele><time>2026-04-10T21:57:06.951Z</time></trkpt><trkpt lat="9.9509768" lon="-84.1123987"><ele>1078.6666666666665</ele><time>2026-04-10T21:57:07.951Z</time></trkpt><trkpt lat="9.9509022" lon="-84.112347"><ele>1079.0</ele><time>2026-04-10T21:57:08.95Z</time></trkpt><trkpt lat="9.9508343" lon="-84.1122969"><ele>1079.3333333333333</ele><time>2026-04-10T21:57:09.95Z</time></trkpt><trkpt lat="9.950777" lon="-84.1122539"><ele>1079.6666666666667</ele><time>2026-04-10T21:57:10.951Z</time></trkpt><trkpt lat="9.9507247" lon="-84.1122164"><ele>1080.0</ele><time>2026-04-10T21:57:11.951Z</time></trkpt><trkpt lat="9.9506674" lon="-84.1121737"><ele>1080.5</ele><time>2026-04-10T21:57:12.951Z</time></trkpt><trkpt lat="9.9506002" lon="-84.1121334"><ele>1081.0</ele><time>2026-04-10T21:57:13.951Z</time></trkpt><trkpt lat="9.9505383" lon="-84.1120862"><ele>1081.5</ele><time>2026-04-10T21:57:14.95Z</time></trkpt><trkpt lat="9.9504672" lon="-84.1120399"><ele>1082.0</ele><time>2026-04-10T21:57:15.951Z</time></trkpt><trkpt lat="9.950393" lon="-84.111992"><ele>1082.5</ele><time>2026-04-10T21:57:16.951Z</time></trkpt><trkpt lat="9.9503235" lon="-84.111932"><ele>1083.0</ele><time>2026-04-10T21:57:17.951Z</time></trkpt><trkpt lat="9.9502445" lon="-84.1118761"><ele>1083.0</ele><time>2026-04-10T21:57:18.951Z</time></trkpt><trkpt lat="9.9501791" lon="-84.1118274"><ele>1083.0</ele><time>2026-04-10T21:57:19.95Z</time></trkpt><trkpt lat="9.9501173" lon="-84.1117832"><ele>1083.0</ele><time>2026-04-10T21:57:20.951Z</time></trkpt><trkpt lat="9.9500649" lon="-84.1117464"><ele>1083.0</ele><time>2026-04-10T21:57:21.949Z</time></trkpt><trkpt lat="9.9500096" lon="-84.1117037"><ele>1083.0</ele><time>2026-04-10T21:57:22.951Z</time></trkpt><trkpt lat="9.9499447" lon="-84.1116603"><ele>1083.0</ele><time>2026-04-10T21:57:23.952Z</time></trkpt><trkpt lat="9.949876" lon="-84.1116108"><ele>1083.6666666666667</ele><time>2026-04-10T21:57:24.95Z</time></trkpt><trkpt lat="9.9498088" lon="-84.1115567"><ele>1084.3333333333333</ele><time>2026-04-10T21:57:25.952Z</time></trkpt><trkpt lat="9.9497499" lon="-84.1115211"><ele>1085.0</ele><time>2026-04-10T21:57:26.951Z</time></trkpt><trkpt lat="9.9496508" lon="-84.1114415"><ele>1085.6666666666665</ele><time>2026-04-10T21:57:28.951Z</time></trkpt><trkpt lat="9.9496052" lon="-84.1113968"><ele>1086.3333333333333</ele><time>2026-04-10T21:57:29.951Z</time></trkpt><trkpt lat="9.9495349" lon="-84.1113517"><ele>1087.0</ele><time>2026-04-10T21:57:31.95Z</time></trkpt><trkpt lat="9.949476" lon="-84.1113053"><ele>1087.0</ele><time>2026-04-10T21:57:33.951Z</time></trkpt><trkpt lat="9.9493522" lon="-84.1112345"><ele>1087.0</ele><time>2026-04-10T21:57:35.951Z</time></trkpt><trkpt lat="9.9492899" lon="-84.1111965"><ele>1087.0</ele><time>2026-04-10T21:57:36.951Z</time></trkpt><trkpt lat="9.9492306" lon="-84.1111523"><ele>1087.0</ele><time>2026-04-10T21:57:37.951Z</time></trkpt><trkpt lat="9.9491687" lon="-84.1111178"><ele>1087.0</ele><time>2026-04-10T21:57:38.951Z</time></trkpt><trkpt lat="9.9491077" lon="-84.1110774"><ele>1087.0</ele><time>2026-04-10T21:57:39.949Z</time></trkpt><trkpt lat="9.949051" lon="-84.1110402"><ele>1087.6666666666665</ele><time>2026-04-10T21:57:40.95Z</time></trkpt><trkpt lat="9.9489416" lon="-84.1109701"><ele>1088.3333333333333</ele><time>2026-04-10T21:57:42.949Z</time></trkpt><trkpt lat="9.9488819" lon="-84.110935"><ele>1089.0</ele><time>2026-04-10T21:57:43.95Z</time></trkpt><trkpt lat="9.9488199" lon="-84.110893"><ele>1089.6666666666667</ele><time>2026-04-10T21:57:44.95Z</time></trkpt><trkpt lat="9.9487596" lon="-84.1108594"><ele>1090.3333333333335</ele><time>2026-04-10T21:57:45.951Z</time></trkpt><trkpt lat="9.9486921" lon="-84.1108238"><ele>1091.0</ele><time>2026-04-10T21:57:46.95Z</time></trkpt><trkpt lat="9.9486254" lon="-84.1107875"><ele>1091.0</ele><time>2026-04-10T21:57:47.95Z</time></trkpt><trkpt lat="9.9485571" lon="-84.1107465"><ele>1091.0</ele><time>2026-04-10T21:57:48.951Z</time></trkpt><trkpt lat="9.9484909" lon="-84.11071"><ele>1091.0</ele><time>2026-04-10T21:57:49.951Z</time></trkpt><trkpt lat="9.948417" lon="-84.110661"><ele>1091.0</ele><time>2026-04-10T21:57:50.949Z</time></trkpt><trkpt lat="9.9483369" lon="-84.1106087"><ele>1091.0</ele><time>2026-04-10T21:57:51.951Z</time></trkpt><trkpt lat="9.9482435" lon="-84.1105455"><ele>1092.25</ele><time>2026-04-10T21:57:52.951Z</time></trkpt><trkpt lat="9.9481426" lon="-84.1104786"><ele>1093.5</ele><time>2026-04-10T21:57:53.951Z</time></trkpt><trkpt lat="9.9480354" lon="-84.1104041"><ele>1094.75</ele><time>2026-04-10T21:57:54.951Z</time></trkpt><trkpt lat="9.9479263" lon="-84.1103286"><ele>1096.0</ele><time>2026-04-10T21:57:55.951Z</time></trkpt><trkpt lat="9.9478187" lon="-84.1102538"><ele>1096.0</ele><time>2026-04-10T21:57:56.951Z</time></trkpt><trkpt lat="9.9477235" lon="-84.1101882"><ele>1096.0</ele><time>2026-04-10T21:57:57.95Z</time></trkpt><trkpt lat="9.9476286" lon="-84.1101176"><ele>1096.0</ele><time>2026-04-10T21:57:58.95Z</time></trkpt><trkpt lat="9.9475394" lon="-84.1100639"><ele>1096.0</ele><time>2026-04-10T21:57:59.95Z</time></trkpt><trkpt lat="9.9474397" lon="-84.1100098"><ele>1096.0</ele><time>2026-04-10T21:58:00.951Z</time></trkpt><trkpt lat="9.9473365" lon="-84.1099769"><ele>1096.3999999999999</ele><time>2026-04-10T21:58:01.953Z</time></trkpt><trkpt lat="9.9472384" lon="-84.1099836"><ele>1096.8</ele><time>2026-04-10T21:58:02.951Z</time></trkpt><trkpt lat="9.9471391" lon="-84.1100022"><ele>1097.1999999999998</ele><time>2026-04-10T21:58:03.95Z</time></trkpt><trkpt lat="9.9470401" lon="-84.1100407"><ele>1097.6</ele><time>2026-04-10T21:58:04.95Z</time></trkpt><trkpt lat="9.9469423" lon="-84.1100858"><ele>1098.0</ele><time>2026-04-10T21:58:05.95Z</time></trkpt><trkpt lat="9.9468373" lon="-84.110141"><ele>1098.0</ele><time>2026-04-10T21:58:06.951Z</time></trkpt><trkpt lat="9.946733" lon="-84.1102008"><ele>1098.0</ele><time>2026-04-10T21:58:07.951Z</time></trkpt><trkpt lat="9.9466306" lon="-84.1102538"><ele>1098.0</ele><time>2026-04-10T21:58:08.95Z</time></trkpt><trkpt lat="9.9465329" lon="-84.1103052"><ele>1098.0</ele><time>2026-04-10T21:58:09.95Z</time></trkpt><trkpt lat="9.9464376" lon="-84.1103566"><ele>1098.8</ele><time>2026-04-10T21:58:10.951Z</time></trkpt><trkpt lat="9.9463422" lon="-84.1104138"><ele>1099.6</ele><time>2026-04-10T21:58:11.951Z</time></trkpt><trkpt lat="9.9462541" lon="-84.1104659"><ele>1100.4</ele><time>2026-04-10T21:58:12.95Z</time></trkpt><trkpt lat="9.9461726" lon="-84.1105312"><ele>1101.2</ele><time>2026-04-10T21:58:13.951Z</time></trkpt><trkpt lat="9.9461028" lon="-84.1106052"><ele>1102.0</ele><time>2026-04-10T21:58:14.95Z</time></trkpt><trkpt lat="9.9460588" lon="-84.110692"><ele>1101.25</ele><time>2026-04-10T21:58:15.952Z</time></trkpt><trkpt lat="9.9460322" lon="-84.1108107"><ele>1100.5</ele><time>2026-04-10T21:58:16.95Z</time></trkpt><trkpt lat="9.9460113" lon="-84.1109451"><ele>1099.75</ele><time>2026-04-10T21:58:17.951Z</time></trkpt><trkpt lat="9.9459917" lon="-84.1110946"><ele>1099.0</ele><time>2026-04-10T21:58:18.951Z</time></trkpt><trkpt lat="9.945966" lon="-84.1112477"><ele>1099.0</ele><time>2026-04-10T21:58:19.949Z</time></trkpt><trkpt lat="9.9459411" lon="-84.111388"><ele>1099.0</ele><time>2026-04-10T21:58:20.95Z</time></trkpt><trkpt lat="9.945916" lon="-84.1115274"><ele>1099.0</ele><time>2026-04-10T21:58:21.951Z</time></trkpt><trkpt lat="9.9458959" lon="-84.1116567"><ele>1099.0</ele><time>2026-04-10T21:58:22.949Z</time></trkpt><trkpt lat="9.9458775" lon="-84.1117876"><ele>1097.2</ele><time>2026-04-10T21:58:23.951Z</time></trkpt><trkpt lat="9.9458656" lon="-84.1119106"><ele>1095.4</ele><time>2026-04-10T21:58:24.951Z</time></trkpt><trkpt lat="9.9458534" lon="-84.1120281"><ele>1093.6</ele><time>2026-04-10T21:58:25.949Z</time></trkpt><trkpt lat="9.9458403" lon="-84.1121351"><ele>1091.8</ele><time>2026-04-10T21:58:26.95Z</time></trkpt><trkpt lat="9.9458293" lon="-84.1122412"><ele>1090.0</ele><time>2026-04-10T21:58:27.951Z</time></trkpt><trkpt lat="9.9458193" lon="-84.1123453"><ele>1089.6</ele><time>2026-04-10T21:58:28.95Z</time></trkpt><trkpt lat="9.9458063" lon="-84.1124438"><ele>1089.2</ele><time>2026-04-10T21:58:29.95Z</time></trkpt><trkpt lat="9.9457971" lon="-84.1125396"><ele>1088.8</ele><time>2026-04-10T21:58:30.951Z</time></trkpt><trkpt lat="9.9457896" lon="-84.1126351"><ele>1088.4</ele><time>2026-04-10T21:58:31.95Z</time></trkpt><trkpt lat="9.9457831" lon="-84.1127204"><ele>1088.0</ele><time>2026-04-10T21:58:32.951Z</time></trkpt><trkpt lat="9.9457746" lon="-84.1128022"><ele>1088.0</ele><time>2026-04-10T21:58:33.95Z</time></trkpt><trkpt lat="9.9457655" lon="-84.1128837"><ele>1088.0</ele><time>2026-04-10T21:58:34.949Z</time></trkpt><trkpt lat="9.9457554" lon="-84.112976"><ele>1088.0</ele><time>2026-04-10T21:58:35.951Z</time></trkpt><trkpt lat="9.9457481" lon="-84.113064"><ele>1088.0</ele><time>2026-04-10T21:58:36.951Z</time></trkpt><trkpt lat="9.9457413" lon="-84.1131481"><ele>1088.0</ele><time>2026-04-10T21:58:37.95Z</time></trkpt><trkpt lat="9.9457239" lon="-84.1132396"><ele>1088.0</ele><time>2026-04-10T21:58:38.95Z</time></trkpt><trkpt lat="9.9457068" lon="-84.1133297"><ele>1087.6</ele><time>2026-04-10T21:58:39.949Z</time></trkpt><trkpt lat="9.9456848" lon="-84.113427"><ele>1087.1999999999998</ele><time>2026-04-10T21:58:40.951Z</time></trkpt><trkpt lat="9.9456575" lon="-84.1135214"><ele>1086.8</ele><time>2026-04-10T21:58:41.95Z</time></trkpt><trkpt lat="9.9456264" lon="-84.1136198"><ele>1086.3999999999999</ele><time>2026-04-10T21:58:42.95Z</time></trkpt><trkpt lat="9.945599" lon="-84.1137048"><ele>1086.0</ele><time>2026-04-10T21:58:43.95Z</time></trkpt><trkpt lat="9.9455658" lon="-84.1137922"><ele>1086.0</ele><time>2026-04-10T21:58:44.951Z</time></trkpt><trkpt lat="9.9455301" lon="-84.1138849"><ele>1086.0</ele><time>2026-04-10T21:58:45.95Z</time></trkpt><trkpt lat="9.9454946" lon="-84.113966"><ele>1086.0</ele><time>2026-04-10T21:58:46.951Z</time></trkpt><trkpt lat="9.9454657" lon="-84.1140382"><ele>1086.0</ele><time>2026-04-10T21:58:47.95Z</time></trkpt><trkpt lat="9.9454261" lon="-84.1141296"><ele>1086.0</ele><time>2026-04-10T21:58:49.95Z</time></trkpt><trkpt lat="9.9453791" lon="-84.1142062"><ele>1086.0</ele><time>2026-04-10T21:58:51.952Z</time></trkpt><trkpt lat="9.9453313" lon="-84.1142893"><ele>1083.0</ele><time>2026-04-10T21:58:53.95Z</time></trkpt><trkpt lat="9.9452689" lon="-84.1144008"><ele>1080.0</ele><time>2026-04-10T21:58:55.949Z</time></trkpt><trkpt lat="9.9452308" lon="-84.1144727"><ele>1077.0</ele><time>2026-04-10T21:58:56.95Z</time></trkpt><trkpt lat="9.9451787" lon="-84.1145377"><ele>1074.0</ele><time>2026-04-10T21:58:57.952Z</time></trkpt><trkpt lat="9.9451244" lon="-84.1146112"><ele>1071.0</ele><time>2026-04-10T21:58:58.95Z</time></trkpt><trkpt lat="9.9450724" lon="-84.1146942"><ele>1072.1666666666667</ele><time>2026-04-10T21:58:59.95Z</time></trkpt><trkpt lat="9.9450217" lon="-84.1147687"><ele>1073.3333333333333</ele><time>2026-04-10T21:59:00.951Z</time></trkpt><trkpt lat="9.9449692" lon="-84.1148421"><ele>1074.5</ele><time>2026-04-10T21:59:01.95Z</time></trkpt><trkpt lat="9.9449223" lon="-84.1149167"><ele>1075.6666666666665</ele><time>2026-04-10T21:59:02.951Z</time></trkpt><trkpt lat="9.9448727" lon="-84.1149892"><ele>1076.8333333333333</ele><time>2026-04-10T21:59:03.951Z</time></trkpt><trkpt lat="9.9448134" lon="-84.1150642"><ele>1078.0</ele><time>2026-04-10T21:59:04.95Z</time></trkpt><trkpt lat="9.9447615" lon="-84.1151433"><ele>1078.6</ele><time>2026-04-10T21:59:05.949Z</time></trkpt><trkpt lat="9.9446981" lon="-84.1152177"><ele>1079.1999999999998</ele><time>2026-04-10T21:59:06.95Z</time></trkpt><trkpt lat="9.9446343" lon="-84.1152929"><ele>1079.8</ele><time>2026-04-10T21:59:07.951Z</time></trkpt><trkpt lat="9.9445682" lon="-84.1153728"><ele>1080.3999999999999</ele><time>2026-04-10T21:59:08.951Z</time></trkpt><trkpt lat="9.9445092" lon="-84.1154528"><ele>1081.0</ele><time>2026-04-10T21:59:09.95Z</time></trkpt><trkpt lat="9.9444365" lon="-84.1155315"><ele>1081.0</ele><time>2026-04-10T21:59:10.951Z</time></trkpt><trkpt lat="9.9443625" lon="-84.1156135"><ele>1081.0</ele><time>2026-04-10T21:59:11.95Z</time></trkpt><trkpt lat="9.9442777" lon="-84.1156991"><ele>1081.0</ele><time>2026-04-10T21:59:12.951Z</time></trkpt><trkpt lat="9.9441911" lon="-84.1157853"><ele>1081.0</ele><time>2026-04-10T21:59:13.951Z</time></trkpt><trkpt lat="9.9441013" lon="-84.115876"><ele>1082.8</ele><time>2026-04-10T21:59:14.951Z</time></trkpt><trkpt lat="9.9440148" lon="-84.1159594"><ele>1084.6</ele><time>2026-04-10T21:59:15.951Z</time></trkpt><trkpt lat="9.9439381" lon="-84.1160446"><ele>1086.4</ele><time>2026-04-10T21:59:16.952Z</time></trkpt><trkpt lat="9.9438593" lon="-84.1161241"><ele>1088.2</ele><time>2026-04-10T21:59:17.95Z</time></trkpt><trkpt lat="9.9437859" lon="-84.1161927"><ele>1090.0</ele><time>2026-04-10T21:59:18.951Z</time></trkpt><trkpt lat="9.9437052" lon="-84.1162745"><ele>1090.0</ele><time>2026-04-10T21:59:19.951Z</time></trkpt><trkpt lat="9.943628" lon="-84.1163559"><ele>1090.0</ele><time>2026-04-10T21:59:20.952Z</time></trkpt><trkpt lat="9.9435467" lon="-84.1164322"><ele>1090.0</ele><time>2026-04-10T21:59:21.95Z</time></trkpt><trkpt lat="9.9434678" lon="-84.1165073"><ele>1090.0</ele><time>2026-04-10T21:59:22.95Z</time></trkpt><trkpt lat="9.9433954" lon="-84.1165761"><ele>1090.0</ele><time>2026-04-10T21:59:23.951Z</time></trkpt><trkpt lat="9.9433181" lon="-84.1166371"><ele>1090.6</ele><time>2026-04-10T21:59:24.95Z</time></trkpt><trkpt lat="9.943238" lon="-84.1166971"><ele>1091.2</ele><time>2026-04-10T21:59:25.95Z</time></trkpt><trkpt lat="9.9431563" lon="-84.1167522"><ele>1091.8</ele><time>2026-04-10T21:59:26.95Z</time></trkpt><trkpt lat="9.9430717" lon="-84.1168039"><ele>1092.4</ele><time>2026-04-10T21:59:27.95Z</time></trkpt><trkpt lat="9.9429963" lon="-84.1168412"><ele>1093.0</ele><time>2026-04-10T21:59:28.95Z</time></trkpt><trkpt lat="9.9429245" lon="-84.1168753"><ele>1093.0</ele><time>2026-04-10T21:59:29.95Z</time></trkpt><trkpt lat="9.9428422" lon="-84.1169053"><ele>1093.0</ele><time>2026-04-10T21:59:30.95Z</time></trkpt><trkpt lat="9.9427684" lon="-84.1169417"><ele>1093.0</ele><time>2026-04-10T21:59:31.95Z</time></trkpt><trkpt lat="9.9426798" lon="-84.1169725"><ele>1093.0</ele><time>2026-04-10T21:59:32.95Z</time></trkpt><trkpt lat="9.9425824" lon="-84.1170057"><ele>1093.0</ele><time>2026-04-10T21:59:33.95Z</time></trkpt><trkpt lat="9.9424807" lon="-84.1170362"><ele>1094.0</ele><time>2026-04-10T21:59:34.949Z</time></trkpt><trkpt lat="9.9423848" lon="-84.117063"><ele>1095.0</ele><time>2026-04-10T21:59:35.949Z</time></trkpt><trkpt lat="9.9422907" lon="-84.1170858"><ele>1096.0</ele><time>2026-04-10T21:59:36.95Z</time></trkpt><trkpt lat="9.9421871" lon="-84.1171082"><ele>1097.0</ele><time>2026-04-10T21:59:37.95Z</time></trkpt><trkpt lat="9.9420804" lon="-84.1171274"><ele>1098.0</ele><time>2026-04-10T21:59:38.95Z</time></trkpt><trkpt lat="9.9419828" lon="-84.1171417"><ele>1098.0</ele><time>2026-04-10T21:59:39.951Z</time></trkpt><trkpt lat="9.9418871" lon="-84.1171574"><ele>1098.0</ele><time>2026-04-10T21:59:40.95Z</time></trkpt><trkpt lat="9.9417978" lon="-84.1171711"><ele>1098.0</ele><time>2026-04-10T21:59:41.95Z</time></trkpt><trkpt lat="9.9417065" lon="-84.1171824"><ele>1098.0</ele><time>2026-04-10T21:59:42.95Z</time></trkpt><trkpt lat="9.9416066" lon="-84.1171928"><ele>1098.0</ele><time>2026-04-10T21:59:43.95Z</time></trkpt><trkpt lat="9.9415089" lon="-84.1172015"><ele>1098.0</ele><time>2026-04-10T21:59:44.95Z</time></trkpt><trkpt lat="9.9414015" lon="-84.1172053"><ele>1098.0</ele><time>2026-04-10T21:59:45.951Z</time></trkpt><trkpt lat="9.9412919" lon="-84.1172069"><ele>1098.0</ele><time>2026-04-10T21:59:46.95Z</time></trkpt><trkpt lat="9.9411787" lon="-84.1172087"><ele>1098.0</ele><time>2026-04-10T21:59:47.95Z</time></trkpt><trkpt lat="9.9410635" lon="-84.1172007"><ele>1098.0</ele><time>2026-04-10T21:59:48.951Z</time></trkpt><trkpt lat="9.9409501" lon="-84.117197"><ele>1098.4</ele><time>2026-04-10T21:59:49.949Z</time></trkpt><trkpt lat="9.9408452" lon="-84.1171866"><ele>1098.8</ele><time>2026-04-10T21:59:50.95Z</time></trkpt><trkpt lat="9.9407426" lon="-84.1171763"><ele>1099.2</ele><time>2026-04-10T21:59:51.95Z</time></trkpt><trkpt lat="9.9406345" lon="-84.1171642"><ele>1099.6</ele><time>2026-04-10T21:59:52.95Z</time></trkpt><trkpt lat="9.9405333" lon="-84.1171516"><ele>1100.0</ele><time>2026-04-10T21:59:53.95Z</time></trkpt><trkpt lat="9.9404367" lon="-84.1171429"><ele>1100.0</ele><time>2026-04-10T21:59:54.95Z</time></trkpt><trkpt lat="9.9403279" lon="-84.1171296"><ele>1100.0</ele><time>2026-04-10T21:59:55.95Z</time></trkpt><trkpt lat="9.9402181" lon="-84.1171204"><ele>1100.0</ele><time>2026-04-10T21:59:56.95Z</time></trkpt><trkpt lat="9.9401091" lon="-84.1171115"><ele>1100.0</ele><time>2026-04-10T21:59:57.949Z</time></trkpt><trkpt lat="9.9400003" lon="-84.1170966"><ele>1100.0</ele><time>2026-04-10T21:59:58.95Z</time></trkpt><trkpt lat="9.9399024" lon="-84.1170912"><ele>1099.25</ele><time>2026-04-10T21:59:59.95Z</time></trkpt><trkpt lat="9.9397894" lon="-84.11708"><ele>1098.5</ele><time>2026-04-10T22:00:00.95Z</time></trkpt><trkpt lat="9.9396592" lon="-84.1170678"><ele>1097.75</ele><time>2026-04-10T22:00:01.95Z</time></trkpt><trkpt lat="9.9395229" lon="-84.1170527"><ele>1097.0</ele><time>2026-04-10T22:00:02.951Z</time></trkpt><trkpt lat="9.9393864" lon="-84.1170332"><ele>1097.0</ele><time>2026-04-10T22:00:03.95Z</time></trkpt><trkpt lat="9.9392394" lon="-84.1170012"><ele>1097.0</ele><time>2026-04-10T22:00:04.95Z</time></trkpt><trkpt lat="9.9390954" lon="-84.1169675"><ele>1097.0</ele><time>2026-04-10T22:00:05.95Z</time></trkpt><trkpt lat="9.9389659" lon="-84.1169317"><ele>1097.0</ele><time>2026-04-10T22:00:06.95Z</time></trkpt><trkpt lat="9.9388413" lon="-84.1168969"><ele>1097.4</ele><time>2026-04-10T22:00:07.949Z</time></trkpt><trkpt lat="9.9387409" lon="-84.1168663"><ele>1097.8000000000002</ele><time>2026-04-10T22:00:08.95Z</time></trkpt><trkpt lat="9.9386352" lon="-84.1168369"><ele>1098.2</ele><time>2026-04-10T22:00:09.95Z</time></trkpt><trkpt lat="9.9385347" lon="-84.1168075"><ele>1098.6000000000001</ele><time>2026-04-10T22:00:10.95Z</time></trkpt><trkpt lat="9.9384366" lon="-84.1167828"><ele>1099.0</ele><time>2026-04-10T22:00:11.95Z</time></trkpt><trkpt lat="9.9383443" lon="-84.1167658"><ele>1099.2</ele><time>2026-04-10T22:00:12.95Z</time></trkpt><trkpt lat="9.9382415" lon="-84.1167518"><ele>1099.4</ele><time>2026-04-10T22:00:13.95Z</time></trkpt><trkpt lat="9.938143" lon="-84.1167356"><ele>1099.6</ele><time>2026-04-10T22:00:14.95Z</time></trkpt><trkpt lat="9.9380436" lon="-84.1167226"><ele>1099.8</ele><time>2026-04-10T22:00:15.95Z</time></trkpt><trkpt lat="9.9379443" lon="-84.1167092"><ele>1100.0</ele><time>2026-04-10T22:00:16.95Z</time></trkpt><trkpt lat="9.9378657" lon="-84.1167013"><ele>1100.0</ele><time>2026-04-10T22:00:17.95Z</time></trkpt><trkpt lat="9.9377897" lon="-84.1166929"><ele>1100.0</ele><time>2026-04-10T22:00:18.951Z</time></trkpt><trkpt lat="9.9377176" lon="-84.1166864"><ele>1100.0</ele><time>2026-04-10T22:00:19.95Z</time></trkpt><trkpt lat="9.9376295" lon="-84.116684"><ele>1100.0</ele><time>2026-04-10T22:00:20.95Z</time></trkpt><trkpt lat="9.9375373" lon="-84.1166725"><ele>1100.0</ele><time>2026-04-10T22:00:21.95Z</time></trkpt><trkpt lat="9.9374317" lon="-84.1166597"><ele>1100.0</ele><time>2026-04-10T22:00:22.951Z</time></trkpt><trkpt lat="9.937317" lon="-84.116658"><ele>1099.5</ele><time>2026-04-10T22:00:23.95Z</time></trkpt><trkpt lat="9.9371834" lon="-84.1166446"><ele>1099.0</ele><time>2026-04-10T22:00:24.95Z</time></trkpt><trkpt lat="9.9370468" lon="-84.1166357"><ele>1098.5</ele><time>2026-04-10T22:00:25.95Z</time></trkpt><trkpt lat="9.9369111" lon="-84.1166284"><ele>1098.0</ele><time>2026-04-10T22:00:26.95Z</time></trkpt><trkpt lat="9.936778" lon="-84.1166208"><ele>1095.75</ele><time>2026-04-10T22:00:27.95Z</time></trkpt><trkpt lat="9.9366408" lon="-84.1166106"><ele>1093.5</ele><time>2026-04-10T22:00:28.951Z</time></trkpt><trkpt lat="9.9364997" lon="-84.1166021"><ele>1091.25</ele><time>2026-04-10T22:00:29.95Z</time></trkpt><trkpt lat="9.9363511" lon="-84.1165924"><ele>1089.0</ele><time>2026-04-10T22:00:30.95Z</time></trkpt><trkpt lat="9.9361771" lon="-84.1165919"><ele>1089.0</ele><time>2026-04-10T22:00:31.949Z</time></trkpt><trkpt lat="9.9359952" lon="-84.1165849"><ele>1089.0</ele><time>2026-04-10T22:00:32.951Z</time></trkpt><trkpt lat="9.935813" lon="-84.1165715"><ele>1089.0</ele><time>2026-04-10T22:00:33.95Z</time></trkpt><trkpt lat="9.9356382" lon="-84.1165523"><ele>1091.6666666666667</ele><time>2026-04-10T22:00:34.95Z</time></trkpt><trkpt lat="9.9354677" lon="-84.1165298"><ele>1094.3333333333335</ele><time>2026-04-10T22:00:35.95Z</time></trkpt><trkpt lat="9.9353076" lon="-84.1165082"><ele>1097.0</ele><time>2026-04-10T22:00:36.95Z</time></trkpt><trkpt lat="9.9351541" lon="-84.1164882"><ele>1097.5</ele><time>2026-04-10T22:00:37.95Z</time></trkpt><trkpt lat="9.9350131" lon="-84.1164683"><ele>1098.0</ele><time>2026-04-10T22:00:38.95Z</time></trkpt><trkpt lat="9.9348772" lon="-84.1164554"><ele>1098.5</ele><time>2026-04-10T22:00:39.95Z</time></trkpt><trkpt lat="9.9347555" lon="-84.1164406"><ele>1099.0</ele><time>2026-04-10T22:00:40.95Z</time></trkpt><trkpt lat="9.9346358" lon="-84.1164346"><ele>1099.0</ele><time>2026-04-10T22:00:41.949Z</time></trkpt><trkpt lat="9.934529" lon="-84.1164229"><ele>1099.0</ele><time>2026-04-10T22:00:42.95Z</time></trkpt><trkpt lat="9.9344321" lon="-84.1164121"><ele>1099.0</ele><time>2026-04-10T22:00:43.95Z</time></trkpt><trkpt lat="9.9343455" lon="-84.1164036"><ele>1099.0</ele><time>2026-04-10T22:00:44.95Z</time></trkpt><trkpt lat="9.9342626" lon="-84.1164005"><ele>1099.0</ele><time>2026-04-10T22:00:45.95Z</time></trkpt><trkpt lat="9.934183" lon="-84.1163972"><ele>1098.5</ele><time>2026-04-10T22:00:46.95Z</time></trkpt><trkpt lat="9.934109" lon="-84.1163917"><ele>1098.0</ele><time>2026-04-10T22:00:47.951Z</time></trkpt><trkpt lat="9.9340421" lon="-84.1163852"><ele>1097.5</ele><time>2026-04-10T22:00:48.95Z</time></trkpt><trkpt lat="9.9339759" lon="-84.1163866"><ele>1097.0</ele><time>2026-04-10T22:00:49.95Z</time></trkpt><trkpt lat="9.9338996" lon="-84.1163854"><ele>1096.5</ele><time>2026-04-10T22:00:50.95Z</time></trkpt><trkpt lat="9.93382" lon="-84.1163811"><ele>1096.0</ele><time>2026-04-10T22:00:51.949Z</time></trkpt><trkpt lat="9.9337281" lon="-84.116378"><ele>1096.0</ele><time>2026-04-10T22:00:52.949Z</time></trkpt><trkpt lat="9.9336449" lon="-84.1163778"><ele>1096.0</ele><time>2026-04-10T22:00:53.951Z</time></trkpt><trkpt lat="9.9335568" lon="-84.1163739"><ele>1096.0</ele><time>2026-04-10T22:00:54.95Z</time></trkpt><trkpt lat="9.9334911" lon="-84.116369"><ele>1096.0</ele><time>2026-04-10T22:00:55.95Z</time></trkpt><trkpt lat="9.9334183" lon="-84.1163676"><ele>1096.0</ele><time>2026-04-10T22:00:56.949Z</time></trkpt><trkpt lat="9.9333475" lon="-84.1163645"><ele>1096.0</ele><time>2026-04-10T22:00:57.95Z</time></trkpt><trkpt lat="9.9332596" lon="-84.1163674"><ele>1095.8333333333333</ele><time>2026-04-10T22:00:58.95Z</time></trkpt><trkpt lat="9.9331731" lon="-84.1163623"><ele>1095.6666666666665</ele><time>2026-04-10T22:00:59.949Z</time></trkpt><trkpt lat="9.9330781" lon="-84.116363"><ele>1095.5</ele><time>2026-04-10T22:01:00.95Z</time></trkpt><trkpt lat="9.9329844" lon="-84.1163595"><ele>1095.3333333333333</ele><time>2026-04-10T22:01:01.95Z</time></trkpt><trkpt lat="9.9328959" lon="-84.1163556"><ele>1095.1666666666667</ele><time>2026-04-10T22:01:02.95Z</time></trkpt><trkpt lat="9.9328132" lon="-84.1163544"><ele>1095.0</ele><time>2026-04-10T22:01:03.95Z</time></trkpt><trkpt lat="9.9327362" lon="-84.1163525"><ele>1095.0</ele><time>2026-04-10T22:01:04.95Z</time></trkpt><trkpt lat="9.9326612" lon="-84.1163523"><ele>1095.0</ele><time>2026-04-10T22:01:05.949Z</time></trkpt><trkpt lat="9.9325922" lon="-84.1163462"><ele>1095.0</ele><time>2026-04-10T22:01:06.95Z</time></trkpt><trkpt lat="9.9325202" lon="-84.1163455"><ele>1095.0</ele><time>2026-04-10T22:01:07.95Z</time></trkpt><trkpt lat="9.9324402" lon="-84.1163461"><ele>1095.0</ele><time>2026-04-10T22:01:08.949Z</time></trkpt><trkpt lat="9.9323469" lon="-84.1163492"><ele>1095.0</ele><time>2026-04-10T22:01:09.95Z</time></trkpt><trkpt lat="9.9322612" lon="-84.1163521"><ele>1093.3333333333333</ele><time>2026-04-10T22:01:10.951Z</time></trkpt><trkpt lat="9.9321744" lon="-84.1163568"><ele>1091.6666666666667</ele><time>2026-04-10T22:01:11.949Z</time></trkpt><trkpt lat="9.9320919" lon="-84.1163568"><ele>1090.0</ele><time>2026-04-10T22:01:12.949Z</time></trkpt><trkpt lat="9.9320047" lon="-84.1163568"><ele>1088.3333333333335</ele><time>2026-04-10T22:01:13.95Z</time></trkpt><trkpt lat="9.9319175" lon="-84.1163582"><ele>1086.6666666666667</ele><time>2026-04-10T22:01:14.95Z</time></trkpt><trkpt lat="9.9318364" lon="-84.1163632"><ele>1085.0</ele><time>2026-04-10T22:01:15.95Z</time></trkpt><trkpt lat="9.9317594" lon="-84.1163662"><ele>1082.6666666666667</ele><time>2026-04-10T22:01:16.95Z</time></trkpt><trkpt lat="9.9316879" lon="-84.1163707"><ele>1080.3333333333335</ele><time>2026-04-10T22:01:17.951Z</time></trkpt><trkpt lat="9.9316174" lon="-84.1163785"><ele>1078.0</ele><time>2026-04-10T22:01:18.95Z</time></trkpt><trkpt lat="9.9315503" lon="-84.1163812"><ele>1075.6666666666667</ele><time>2026-04-10T22:01:19.949Z</time></trkpt><trkpt lat="9.9314528" lon="-84.1163798"><ele>1073.3333333333333</ele><time>2026-04-10T22:01:21.95Z</time></trkpt><trkpt lat="9.9313697" lon="-84.1163831"><ele>1071.0</ele><time>2026-04-10T22:01:24.95Z</time></trkpt><trkpt lat="9.9312959" lon="-84.1163868"><ele>1071.0</ele><time>2026-04-10T22:01:27.95Z</time></trkpt><trkpt lat="9.9312276" lon="-84.1163901"><ele>1071.0</ele><time>2026-04-10T22:01:30.949Z</time></trkpt><trkpt lat="9.9311518" lon="-84.1163915"><ele>1071.0</ele><time>2026-04-10T22:01:33.95Z</time></trkpt><trkpt lat="9.9310763" lon="-84.1163921"><ele>1071.0</ele><time>2026-04-10T22:01:37.95Z</time></trkpt><trkpt lat="9.9309967" lon="-84.1163922"><ele>1071.0</ele><time>2026-04-10T22:01:41.949Z</time></trkpt><trkpt lat="9.9309192" lon="-84.1163995"><ele>1071.0</ele><time>2026-04-10T22:01:44.949Z</time></trkpt><trkpt lat="9.9308204" lon="-84.1164148"><ele>1069.3999999999999</ele><time>2026-04-10T22:01:46.95Z</time></trkpt><trkpt lat="9.9307186" lon="-84.1164298"><ele>1067.8</ele><time>2026-04-10T22:01:48.95Z</time></trkpt><trkpt lat="9.930602" lon="-84.116427"><ele>1066.1999999999998</ele><time>2026-04-10T22:01:50.951Z</time></trkpt><trkpt lat="9.9304878" lon="-84.1164188"><ele>1064.6</ele><time>2026-04-10T22:01:52.949Z</time></trkpt><trkpt lat="9.9303785" lon="-84.1164218"><ele>1063.0</ele><time>2026-04-10T22:01:54.95Z</time></trkpt><trkpt lat="9.9303133" lon="-84.1164223"><ele>1063.0</ele><time>2026-04-10T22:01:55.951Z</time></trkpt><trkpt lat="9.9302409" lon="-84.1164226"><ele>1063.0</ele><time>2026-04-10T22:01:56.951Z</time></trkpt><trkpt lat="9.9301744" lon="-84.1164199"><ele>1063.0</ele><time>2026-04-10T22:01:57.949Z</time></trkpt><trkpt lat="9.930102" lon="-84.1164162"><ele>1063.0</ele><time>2026-04-10T22:01:58.951Z</time></trkpt><trkpt lat="9.9299841" lon="-84.1164151"><ele>1063.0</ele><time>2026-04-10T22:02:00.951Z</time></trkpt><trkpt lat="9.9298476" lon="-84.1164165"><ele>1064.8</ele><time>2026-04-10T22:02:02.95Z</time></trkpt><trkpt lat="9.9297581" lon="-84.1164175"><ele>1066.6</ele><time>2026-04-10T22:02:03.95Z</time></trkpt><trkpt lat="9.9296567" lon="-84.1164179"><ele>1068.4</ele><time>2026-04-10T22:02:04.95Z</time></trkpt><trkpt lat="9.9295473" lon="-84.116413"><ele>1070.2</ele><time>2026-04-10T22:02:05.95Z</time></trkpt><trkpt lat="9.9294403" lon="-84.1164043"><ele>1072.0</ele><time>2026-04-10T22:02:06.95Z</time></trkpt><trkpt lat="9.9293215" lon="-84.1163926"><ele>1074.4</ele><time>2026-04-10T22:02:07.95Z</time></trkpt><trkpt lat="9.9292059" lon="-84.1163773"><ele>1076.8000000000002</ele><time>2026-04-10T22:02:08.95Z</time></trkpt><trkpt lat="9.9290989" lon="-84.1163547"><ele>1079.2</ele><time>2026-04-10T22:02:09.95Z</time></trkpt><trkpt lat="9.9289931" lon="-84.116329"><ele>1081.6000000000001</ele><time>2026-04-10T22:02:10.95Z</time></trkpt><trkpt lat="9.9288894" lon="-84.1163018"><ele>1084.0</ele><time>2026-04-10T22:02:11.951Z</time></trkpt><trkpt lat="9.928782" lon="-84.1162668"><ele>1084.0</ele><time>2026-04-10T22:02:12.949Z</time></trkpt><trkpt lat="9.928687" lon="-84.1162374"><ele>1084.0</ele><time>2026-04-10T22:02:13.95Z</time></trkpt><trkpt lat="9.9286018" lon="-84.1162044"><ele>1084.0</ele><time>2026-04-10T22:02:14.949Z</time></trkpt><trkpt lat="9.9285084" lon="-84.1161631"><ele>1084.0</ele><time>2026-04-10T22:02:15.951Z</time></trkpt><trkpt lat="9.9284135" lon="-84.1161189"><ele>1084.0</ele><time>2026-04-10T22:02:16.95Z</time></trkpt><trkpt lat="9.9283179" lon="-84.1160665"><ele>1083.8333333333333</ele><time>2026-04-10T22:02:17.951Z</time></trkpt><trkpt lat="9.928221" lon="-84.1160177"><ele>1083.6666666666665</ele><time>2026-04-10T22:02:18.949Z</time></trkpt><trkpt lat="9.9281366" lon="-84.1159713"><ele>1083.5</ele><time>2026-04-10T22:02:19.951Z</time></trkpt><trkpt lat="9.9280716" lon="-84.1159245"><ele>1083.3333333333333</ele><time>2026-04-10T22:02:20.95Z</time></trkpt><trkpt lat="9.9280005" lon="-84.1158765"><ele>1083.1666666666667</ele><time>2026-04-10T22:02:21.949Z</time></trkpt><trkpt lat="9.9279454" lon="-84.1158305"><ele>1083.0</ele><time>2026-04-10T22:02:22.95Z</time></trkpt><trkpt lat="9.9278827" lon="-84.1157817"><ele>1084.4285714285716</ele><time>2026-04-10T22:02:23.949Z</time></trkpt><trkpt lat="9.9278168" lon="-84.1157254"><ele>1085.857142857143</ele><time>2026-04-10T22:02:24.95Z</time></trkpt><trkpt lat="9.9277619" lon="-84.1156786"><ele>1087.2857142857142</ele><time>2026-04-10T22:02:25.95Z</time></trkpt><trkpt lat="9.9277156" lon="-84.1156328"><ele>1088.7142857142858</ele><time>2026-04-10T22:02:26.95Z</time></trkpt><trkpt lat="9.9276675" lon="-84.1155793"><ele>1090.142857142857</ele><time>2026-04-10T22:02:27.95Z</time></trkpt><trkpt lat="9.9276187" lon="-84.1155268"><ele>1091.5714285714287</ele><time>2026-04-10T22:02:28.95Z</time></trkpt><trkpt lat="9.927567" lon="-84.1154687"><ele>1093.0</ele><time>2026-04-10T22:02:29.95Z</time></trkpt><trkpt lat="9.9275115" lon="-84.1154075"><ele>1093.0</ele><time>2026-04-10T22:02:30.949Z</time></trkpt><trkpt lat="9.9274562" lon="-84.1153326"><ele>1093.0</ele><time>2026-04-10T22:02:31.949Z</time></trkpt><trkpt lat="9.9273871" lon="-84.1152338"><ele>1093.0</ele><time>2026-04-10T22:02:32.951Z</time></trkpt><trkpt lat="9.9273232" lon="-84.1151378"><ele>1093.0</ele><time>2026-04-10T22:02:33.95Z</time></trkpt><trkpt lat="9.9272606" lon="-84.1150348"><ele>1093.0</ele><time>2026-04-10T22:02:34.95Z</time></trkpt><trkpt lat="9.9271955" lon="-84.1149343"><ele>1095.25</ele><time>2026-04-10T22:02:35.95Z</time></trkpt><trkpt lat="9.9271368" lon="-84.1148266"><ele>1097.5</ele><time>2026-04-10T22:02:36.95Z</time></trkpt><trkpt lat="9.9270767" lon="-84.114719"><ele>1099.75</ele><time>2026-04-10T22:02:37.949Z</time></trkpt><trkpt lat="9.9270117" lon="-84.1146063"><ele>1102.0</ele><time>2026-04-10T22:02:38.949Z</time></trkpt><trkpt lat="9.9269515" lon="-84.1144978"><ele>1102.0</ele><time>2026-04-10T22:02:39.949Z</time></trkpt><trkpt lat="9.9268948" lon="-84.1143986"><ele>1102.0</ele><time>2026-04-10T22:02:40.95Z</time></trkpt><trkpt lat="9.9268466" lon="-84.1143108"><ele>1102.0</ele><time>2026-04-10T22:02:41.949Z</time></trkpt><trkpt lat="9.926802" lon="-84.1142303"><ele>1102.0</ele><time>2026-04-10T22:02:42.951Z</time></trkpt><trkpt lat="9.9267602" lon="-84.1141543"><ele>1102.0</ele><time>2026-04-10T22:02:43.949Z</time></trkpt><trkpt lat="9.9267177" lon="-84.1140761"><ele>1102.6666666666665</ele><time>2026-04-10T22:02:44.95Z</time></trkpt><trkpt lat="9.9266756" lon="-84.1139953"><ele>1103.3333333333333</ele><time>2026-04-10T22:02:45.95Z</time></trkpt><trkpt lat="9.9266359" lon="-84.1139165"><ele>1104.0</ele><time>2026-04-10T22:02:46.95Z</time></trkpt><trkpt lat="9.9265952" lon="-84.1138509"><ele>1104.6666666666667</ele><time>2026-04-10T22:02:47.95Z</time></trkpt><trkpt lat="9.9265689" lon="-84.1137894"><ele>1105.3333333333335</ele><time>2026-04-10T22:02:48.95Z</time></trkpt><trkpt lat="9.926534" lon="-84.1137315"><ele>1106.0</ele><time>2026-04-10T22:02:49.949Z</time></trkpt><trkpt lat="9.9264772" lon="-84.1136213"><ele>1106.0</ele><time>2026-04-10T22:02:51.949Z</time></trkpt><trkpt lat="9.9264365" lon="-84.1135523"><ele>1106.0</ele><time>2026-04-10T22:02:52.949Z</time></trkpt><trkpt lat="9.9264003" lon="-84.1134861"><ele>1106.0</ele><time>2026-04-10T22:02:53.95Z</time></trkpt><trkpt lat="9.9263647" lon="-84.1134176"><ele>1106.0</ele><time>2026-04-10T22:02:54.949Z</time></trkpt><trkpt lat="9.9263282" lon="-84.1133655"><ele>1106.0</ele><time>2026-04-10T22:02:55.95Z</time></trkpt><trkpt lat="9.9262705" lon="-84.1132495"><ele>1106.0</ele><time>2026-04-10T22:02:57.948Z</time></trkpt><trkpt lat="9.9262325" lon="-84.1131804"><ele>1106.6</ele><time>2026-04-10T22:02:58.949Z</time></trkpt><trkpt lat="9.9261962" lon="-84.1131073"><ele>1107.1999999999998</ele><time>2026-04-10T22:02:59.95Z</time></trkpt><trkpt lat="9.9261482" lon="-84.1130238"><ele>1107.8000000000002</ele><time>2026-04-10T22:03:00.949Z</time></trkpt><trkpt lat="9.9260976" lon="-84.1129316"><ele>1108.4</ele><time>2026-04-10T22:03:01.95Z</time></trkpt><trkpt lat="9.92604" lon="-84.1128236"><ele>1109.0</ele><time>2026-04-10T22:03:02.948Z</time></trkpt><trkpt lat="9.9259657" lon="-84.1127047"><ele>1109.0</ele><time>2026-04-10T22:03:03.949Z</time></trkpt><trkpt lat="9.9258862" lon="-84.1125732"><ele>1109.0</ele><time>2026-04-10T22:03:04.949Z</time></trkpt><trkpt lat="9.9257969" lon="-84.1124156"><ele>1109.0</ele><time>2026-04-10T22:03:05.949Z</time></trkpt><trkpt lat="9.9257001" lon="-84.1122486"><ele>1110.0</ele><time>2026-04-10T22:03:06.949Z</time></trkpt><trkpt lat="9.9256016" lon="-84.1120706"><ele>1111.0</ele><time>2026-04-10T22:03:07.949Z</time></trkpt><trkpt lat="9.9254973" lon="-84.1118915"><ele>1112.0</ele><time>2026-04-10T22:03:08.95Z</time></trkpt><trkpt lat="9.9253752" lon="-84.1116885"><ele>1114.5</ele><time>2026-04-10T22:03:09.949Z</time></trkpt><trkpt lat="9.9252589" lon="-84.111479"><ele>1117.0</ele><time>2026-04-10T22:03:10.95Z</time></trkpt><trkpt lat="9.9251462" lon="-84.1112813"><ele>1117.0</ele><time>2026-04-10T22:03:11.95Z</time></trkpt><trkpt lat="9.9250393" lon="-84.1110925"><ele>1117.0</ele><time>2026-04-10T22:03:12.949Z</time></trkpt><trkpt lat="9.9249369" lon="-84.1109132"><ele>1117.0</ele><time>2026-04-10T22:03:13.949Z</time></trkpt><trkpt lat="9.924834" lon="-84.1107278"><ele>1118.0</ele><time>2026-04-10T22:03:14.948Z</time></trkpt><trkpt lat="9.9247244" lon="-84.1105358"><ele>1119.0</ele><time>2026-04-10T22:03:15.95Z</time></trkpt><trkpt lat="9.9246109" lon="-84.1103377"><ele>1120.0</ele><time>2026-04-10T22:03:16.949Z</time></trkpt><trkpt lat="9.924503" lon="-84.1101392"><ele>1120.0</ele><time>2026-04-10T22:03:17.95Z</time></trkpt><trkpt lat="9.9243937" lon="-84.1099491"><ele>1120.0</ele><time>2026-04-10T22:03:18.95Z</time></trkpt><trkpt lat="9.9242903" lon="-84.1097578"><ele>1120.0</ele><time>2026-04-10T22:03:19.951Z</time></trkpt><trkpt lat="9.9241864" lon="-84.1095596"><ele>1120.0</ele><time>2026-04-10T22:03:20.95Z</time></trkpt><trkpt lat="9.9240797" lon="-84.1093484"><ele>1120.0</ele><time>2026-04-10T22:03:21.949Z</time></trkpt><trkpt lat="9.923971" lon="-84.1091378"><ele>1121.0</ele><time>2026-04-10T22:03:22.949Z</time></trkpt><trkpt lat="9.9238628" lon="-84.108942"><ele>1122.0</ele><time>2026-04-10T22:03:23.951Z</time></trkpt><trkpt lat="9.9237472" lon="-84.1087508"><ele>1123.0</ele><time>2026-04-10T22:03:24.95Z</time></trkpt><trkpt lat="9.9236278" lon="-84.1085606"><ele>1123.0</ele><time>2026-04-10T22:03:25.949Z</time></trkpt><trkpt lat="9.9234956" lon="-84.1083879"><ele>1123.0</ele><time>2026-04-10T22:03:26.95Z</time></trkpt><trkpt lat="9.9233526" lon="-84.1082255"><ele>1123.0</ele><time>2026-04-10T22:03:27.951Z</time></trkpt><trkpt lat="9.9232036" lon="-84.1080735"><ele>1123.0</ele><time>2026-04-10T22:03:28.95Z</time></trkpt><trkpt lat="9.923053" lon="-84.1079348"><ele>1123.0</ele><time>2026-04-10T22:03:29.949Z</time></trkpt><trkpt lat="9.9229082" lon="-84.107824"><ele>1123.0</ele><time>2026-04-10T22:03:30.949Z</time></trkpt><trkpt lat="9.9227624" lon="-84.1077159"><ele>1123.0</ele><time>2026-04-10T22:03:31.95Z</time></trkpt><trkpt lat="9.9226076" lon="-84.1076138"><ele>1123.0</ele><time>2026-04-10T22:03:32.948Z</time></trkpt><trkpt lat="9.9224451" lon="-84.1075199"><ele>1123.0</ele><time>2026-04-10T22:03:33.949Z</time></trkpt><trkpt lat="9.9222681" lon="-84.1074351"><ele>1123.6666666666665</ele><time>2026-04-10T22:03:34.951Z</time></trkpt><trkpt lat="9.9220849" lon="-84.1073506"><ele>1124.3333333333333</ele><time>2026-04-10T22:03:35.949Z</time></trkpt><trkpt lat="9.921897" lon="-84.1072717"><ele>1125.0</ele><time>2026-04-10T22:03:36.949Z</time></trkpt><trkpt lat="9.9217154" lon="-84.1072095"><ele>1123.0</ele><time>2026-04-10T22:03:37.949Z</time></trkpt><trkpt lat="9.9215338" lon="-84.107154"><ele>1121.0</ele><time>2026-04-10T22:03:38.95Z</time></trkpt><trkpt lat="9.9213609" lon="-84.1071114"><ele>1119.0</ele><time>2026-04-10T22:03:39.949Z</time></trkpt><trkpt lat="9.9211777" lon="-84.1070765"><ele>1119.0</ele><time>2026-04-10T22:03:40.949Z</time></trkpt><trkpt lat="9.9209849" lon="-84.1070388"><ele>1119.0</ele><time>2026-04-10T22:03:41.949Z</time></trkpt><trkpt lat="9.9207948" lon="-84.1070015"><ele>1119.0</ele><time>2026-04-10T22:03:42.949Z</time></trkpt><trkpt lat="9.9206202" lon="-84.1069738"><ele>1116.6666666666667</ele><time>2026-04-10T22:03:43.949Z</time></trkpt><trkpt lat="9.9204567" lon="-84.1069418"><ele>1114.3333333333335</ele><time>2026-04-10T22:03:44.949Z</time></trkpt><trkpt lat="9.9203058" lon="-84.1069142"><ele>1112.0</ele><time>2026-04-10T22:03:45.949Z</time></trkpt><trkpt lat="9.9201658" lon="-84.1068923"><ele>1111.75</ele><time>2026-04-10T22:03:46.95Z</time></trkpt><trkpt lat="9.9200298" lon="-84.1068713"><ele>1111.5</ele><time>2026-04-10T22:03:47.949Z</time></trkpt><trkpt lat="9.9198899" lon="-84.1068478"><ele>1111.25</ele><time>2026-04-10T22:03:48.949Z</time></trkpt><trkpt lat="9.9197549" lon="-84.1068231"><ele>1111.0</ele><time>2026-04-10T22:03:49.949Z</time></trkpt><trkpt lat="9.919633" lon="-84.1068017"><ele>1111.0</ele><time>2026-04-10T22:03:50.948Z</time></trkpt><trkpt lat="9.9195061" lon="-84.1067776"><ele>1111.0</ele><time>2026-04-10T22:03:51.95Z</time></trkpt><trkpt lat="9.9193778" lon="-84.1067508"><ele>1111.0</ele><time>2026-04-10T22:03:52.948Z</time></trkpt><trkpt lat="9.9192469" lon="-84.1067258"><ele>1111.0</ele><time>2026-04-10T22:03:53.949Z</time></trkpt><trkpt lat="9.9191188" lon="-84.1066988"><ele>1110.75</ele><time>2026-04-10T22:03:54.95Z</time></trkpt><trkpt lat="9.9189892" lon="-84.1066805"><ele>1110.5</ele><time>2026-04-10T22:03:55.949Z</time></trkpt><trkpt lat="9.9188527" lon="-84.1066567"><ele>1110.25</ele><time>2026-04-10T22:03:56.95Z</time></trkpt><trkpt lat="9.9187117" lon="-84.1066316"><ele>1110.0</ele><time>2026-04-10T22:03:57.948Z</time></trkpt><trkpt lat="9.9185571" lon="-84.1065978"><ele>1110.3333333333333</ele><time>2026-04-10T22:03:58.949Z</time></trkpt><trkpt lat="9.9184051" lon="-84.1065617"><ele>1110.6666666666665</ele><time>2026-04-10T22:03:59.95Z</time></trkpt><trkpt lat="9.9182566" lon="-84.1065316"><ele>1111.0</ele><time>2026-04-10T22:04:00.949Z</time></trkpt><trkpt lat="9.9181134" lon="-84.1065038"><ele>1110.5</ele><time>2026-04-10T22:04:01.949Z</time></trkpt><trkpt lat="9.9179674" lon="-84.1064806"><ele>1110.0</ele><time>2026-04-10T22:04:02.95Z</time></trkpt><trkpt lat="9.9178245" lon="-84.1064524"><ele>1109.5</ele><time>2026-04-10T22:04:03.95Z</time></trkpt><trkpt lat="9.917677" lon="-84.1064265"><ele>1109.0</ele><time>2026-04-10T22:04:04.95Z</time></trkpt><trkpt lat="9.9175338" lon="-84.1063998"><ele>1109.0</ele><time>2026-04-10T22:04:05.949Z</time></trkpt><trkpt lat="9.9173889" lon="-84.1063719"><ele>1109.0</ele><time>2026-04-10T22:04:06.949Z</time></trkpt><trkpt lat="9.9172388" lon="-84.1063437"><ele>1109.0</ele><time>2026-04-10T22:04:07.949Z</time></trkpt><trkpt lat="9.9170857" lon="-84.1063111"><ele>1109.0</ele><time>2026-04-10T22:04:08.949Z</time></trkpt><trkpt lat="9.9169286" lon="-84.1062761"><ele>1109.0</ele><time>2026-04-10T22:04:09.95Z</time></trkpt><trkpt lat="9.9167659" lon="-84.1062464"><ele>1109.0</ele><time>2026-04-10T22:04:10.95Z</time></trkpt><trkpt lat="9.916603" lon="-84.1062187"><ele>1109.6666666666667</ele><time>2026-04-10T22:04:11.949Z</time></trkpt><trkpt lat="9.9164425" lon="-84.1061926"><ele>1110.3333333333333</ele><time>2026-04-10T22:04:12.949Z</time></trkpt><trkpt lat="9.9162794" lon="-84.1061647"><ele>1111.0</ele><time>2026-04-10T22:04:13.95Z</time></trkpt><trkpt lat="9.9161129" lon="-84.1061321"><ele>1111.0</ele><time>2026-04-10T22:04:14.949Z</time></trkpt><trkpt lat="9.9159459" lon="-84.1061009"><ele>1111.0</ele><time>2026-04-10T22:04:15.95Z</time></trkpt><trkpt lat="9.9157841" lon="-84.1060686"><ele>1111.0</ele><time>2026-04-10T22:04:16.95Z</time></trkpt><trkpt lat="9.9156224" lon="-84.1060349"><ele>1111.0</ele><time>2026-04-10T22:04:17.949Z</time></trkpt><trkpt lat="9.9154508" lon="-84.1060147"><ele>1111.0</ele><time>2026-04-10T22:04:18.949Z</time></trkpt><trkpt lat="9.9152666" lon="-84.1060005"><ele>1111.0</ele><time>2026-04-10T22:04:19.949Z</time></trkpt><trkpt lat="9.9150682" lon="-84.1059842"><ele>1111.0</ele><time>2026-04-10T22:04:20.951Z</time></trkpt><trkpt lat="9.9148615" lon="-84.1059603"><ele>1111.0</ele><time>2026-04-10T22:04:21.95Z</time></trkpt><trkpt lat="9.9146382" lon="-84.1059188"><ele>1111.0</ele><time>2026-04-10T22:04:22.95Z</time></trkpt><trkpt lat="9.9144167" lon="-84.1058679"><ele>1110.6666666666665</ele><time>2026-04-10T22:04:23.949Z</time></trkpt><trkpt lat="9.9142162" lon="-84.1058038"><ele>1110.3333333333333</ele><time>2026-04-10T22:04:24.95Z</time></trkpt><trkpt lat="9.9140278" lon="-84.1057246"><ele>1110.0</ele><time>2026-04-10T22:04:25.95Z</time></trkpt><trkpt lat="9.9138516" lon="-84.1056357"><ele>1110.0</ele><time>2026-04-10T22:04:26.95Z</time></trkpt><trkpt lat="9.9136746" lon="-84.1055376"><ele>1110.0</ele><time>2026-04-10T22:04:27.949Z</time></trkpt><trkpt lat="9.9135108" lon="-84.1054094"><ele>1110.0</ele><time>2026-04-10T22:04:28.95Z</time></trkpt><trkpt lat="9.9133599" lon="-84.105269"><ele>1110.3333333333333</ele><time>2026-04-10T22:04:29.95Z</time></trkpt><trkpt lat="9.9132243" lon="-84.1051191"><ele>1110.6666666666665</ele><time>2026-04-10T22:04:30.949Z</time></trkpt><trkpt lat="9.913103" lon="-84.1049622"><ele>1111.0</ele><time>2026-04-10T22:04:31.949Z</time></trkpt><trkpt lat="9.9129947" lon="-84.1047988"><ele>1111.0</ele><time>2026-04-10T22:04:32.949Z</time></trkpt><trkpt lat="9.9128982" lon="-84.1046214"><ele>1111.0</ele><time>2026-04-10T22:04:33.949Z</time></trkpt><trkpt lat="9.9128115" lon="-84.1044317"><ele>1111.0</ele><time>2026-04-10T22:04:34.95Z</time></trkpt><trkpt lat="9.9127329" lon="-84.1042322"><ele>1112.6666666666665</ele><time>2026-04-10T22:04:35.949Z</time></trkpt><trkpt lat="9.9126615" lon="-84.1040234"><ele>1114.3333333333333</ele><time>2026-04-10T22:04:36.95Z</time></trkpt><trkpt lat="9.9125977" lon="-84.1038242"><ele>1116.0</ele><time>2026-04-10T22:04:37.949Z</time></trkpt><trkpt lat="9.9125356" lon="-84.1036337"><ele>1116.6666666666667</ele><time>2026-04-10T22:04:38.951Z</time></trkpt><trkpt lat="9.9124693" lon="-84.1034503"><ele>1117.3333333333335</ele><time>2026-04-10T22:04:39.949Z</time></trkpt><trkpt lat="9.9124023" lon="-84.1032679"><ele>1118.0</ele><time>2026-04-10T22:04:40.95Z</time></trkpt><trkpt lat="9.9123398" lon="-84.1030837"><ele>1119.3333333333335</ele><time>2026-04-10T22:04:41.949Z</time></trkpt><trkpt lat="9.9122755" lon="-84.1029006"><ele>1120.6666666666667</ele><time>2026-04-10T22:04:42.95Z</time></trkpt><trkpt lat="9.912212" lon="-84.1027262"><ele>1122.0</ele><time>2026-04-10T22:04:43.95Z</time></trkpt><trkpt lat="9.912152" lon="-84.1025593"><ele>1122.3333333333333</ele><time>2026-04-10T22:04:44.949Z</time></trkpt><trkpt lat="9.9120862" lon="-84.1024069"><ele>1122.6666666666665</ele><time>2026-04-10T22:04:45.949Z</time></trkpt><trkpt lat="9.912028" lon="-84.1022601"><ele>1123.0</ele><time>2026-04-10T22:04:46.95Z</time></trkpt><trkpt lat="9.9119721" lon="-84.1021143"><ele>1123.0</ele><time>2026-04-10T22:04:47.949Z</time></trkpt><trkpt lat="9.9119172" lon="-84.1019797"><ele>1123.0</ele><time>2026-04-10T22:04:48.95Z</time></trkpt><trkpt lat="9.911871" lon="-84.1018455"><ele>1123.0</ele><time>2026-04-10T22:04:49.949Z</time></trkpt><trkpt lat="9.9118246" lon="-84.1017175"><ele>1123.0</ele><time>2026-04-10T22:04:50.95Z</time></trkpt><trkpt lat="9.9117779" lon="-84.1015971"><ele>1122.5</ele><time>2026-04-10T22:04:51.949Z</time></trkpt><trkpt lat="9.9117278" lon="-84.1014687"><ele>1122.0</ele><time>2026-04-10T22:04:52.949Z</time></trkpt><trkpt lat="9.9116841" lon="-84.1013423"><ele>1121.5</ele><time>2026-04-10T22:04:53.95Z</time></trkpt><trkpt lat="9.9116384" lon="-84.1012185"><ele>1121.0</ele><time>2026-04-10T22:04:54.95Z</time></trkpt><trkpt lat="9.9115973" lon="-84.1011043"><ele>1121.0</ele><time>2026-04-10T22:04:55.95Z</time></trkpt><trkpt lat="9.9115571" lon="-84.1009862"><ele>1121.0</ele><time>2026-04-10T22:04:56.95Z</time></trkpt><trkpt lat="9.9115149" lon="-84.1008559"><ele>1121.0</ele><time>2026-04-10T22:04:57.95Z</time></trkpt><trkpt lat="9.9114748" lon="-84.100734"><ele>1121.0</ele><time>2026-04-10T22:04:58.949Z</time></trkpt><trkpt lat="9.9114356" lon="-84.1006168"><ele>1120.8</ele><time>2026-04-10T22:04:59.95Z</time></trkpt><trkpt lat="9.9113986" lon="-84.1005042"><ele>1120.6</ele><time>2026-04-10T22:05:00.948Z</time></trkpt><trkpt lat="9.9113614" lon="-84.1004019"><ele>1120.4</ele><time>2026-04-10T22:05:01.949Z</time></trkpt><trkpt lat="9.9113269" lon="-84.1003042"><ele>1120.2</ele><time>2026-04-10T22:05:02.949Z</time></trkpt><trkpt lat="9.9112942" lon="-84.1002043"><ele>1120.0</ele><time>2026-04-10T22:05:03.949Z</time></trkpt><trkpt lat="9.9112653" lon="-84.1001069"><ele>1120.0</ele><time>2026-04-10T22:05:04.949Z</time></trkpt><trkpt lat="9.9112424" lon="-84.1000186"><ele>1120.0</ele><time>2026-04-10T22:05:05.949Z</time></trkpt><trkpt lat="9.9112188" lon="-84.0999383"><ele>1120.0</ele><time>2026-04-10T22:05:06.95Z</time></trkpt><trkpt lat="9.9111928" lon="-84.0998665"><ele>1120.0</ele><time>2026-04-10T22:05:07.949Z</time></trkpt><trkpt lat="9.9111519" lon="-84.0997996"><ele>1120.0</ele><time>2026-04-10T22:05:08.949Z</time></trkpt><trkpt lat="9.9110904" lon="-84.0997401"><ele>1120.0</ele><time>2026-04-10T22:05:09.949Z</time></trkpt><trkpt lat="9.9110088" lon="-84.0996893"><ele>1119.6</ele><time>2026-04-10T22:05:10.95Z</time></trkpt><trkpt lat="9.9109171" lon="-84.0996412"><ele>1119.2</ele><time>2026-04-10T22:05:11.95Z</time></trkpt><trkpt lat="9.9108352" lon="-84.0995671"><ele>1118.8</ele><time>2026-04-10T22:05:12.95Z</time></trkpt><trkpt lat="9.9107642" lon="-84.0994833"><ele>1118.4</ele><time>2026-04-10T22:05:13.949Z</time></trkpt><trkpt lat="9.9106896" lon="-84.0994098"><ele>1118.0</ele><time>2026-04-10T22:05:14.949Z</time></trkpt><trkpt lat="9.9106065" lon="-84.0993596"><ele>1118.0</ele><time>2026-04-10T22:05:15.949Z</time></trkpt><trkpt lat="9.9104969" lon="-84.0993259"><ele>1118.0</ele><time>2026-04-10T22:05:16.949Z</time></trkpt><trkpt lat="9.9103772" lon="-84.0992985"><ele>1118.0</ele><time>2026-04-10T22:05:17.949Z</time></trkpt><trkpt lat="9.9102648" lon="-84.0992722"><ele>1118.0</ele><time>2026-04-10T22:05:18.949Z</time></trkpt><trkpt lat="9.9101627" lon="-84.0992451"><ele>1118.3333333333335</ele><time>2026-04-10T22:05:19.949Z</time></trkpt><trkpt lat="9.9100718" lon="-84.0992227"><ele>1118.6666666666667</ele><time>2026-04-10T22:05:20.949Z</time></trkpt><trkpt lat="9.9099946" lon="-84.099198"><ele>1119.0</ele><time>2026-04-10T22:05:21.949Z</time></trkpt><trkpt lat="9.9099334" lon="-84.0991785"><ele>1119.3333333333333</ele><time>2026-04-10T22:05:22.95Z</time></trkpt><trkpt lat="9.909843" lon="-84.0991416"><ele>1119.6666666666665</ele><time>2026-04-10T22:05:24.95Z</time></trkpt><trkpt lat="9.9097616" lon="-84.0990954"><ele>1120.0</ele><time>2026-04-10T22:05:27.949Z</time></trkpt><trkpt lat="9.9096977" lon="-84.099058"><ele>1120.0</ele><time>2026-04-10T22:05:30.95Z</time></trkpt><trkpt lat="9.9096198" lon="-84.0990111"><ele>1120.0</ele><time>2026-04-10T22:05:33.949Z</time></trkpt><trkpt lat="9.9095434" lon="-84.0989632"><ele>1120.0</ele><time>2026-04-10T22:05:36.95Z</time></trkpt><trkpt lat="9.9094648" lon="-84.0989127"><ele>1120.0</ele><time>2026-04-10T22:05:39.949Z</time></trkpt><trkpt lat="9.9094103" lon="-84.0988778"><ele>1120.0</ele><time>2026-04-10T22:05:41.948Z</time></trkpt><trkpt lat="9.9093348" lon="-84.0988233"><ele>1120.0</ele><time>2026-04-10T22:05:44.949Z</time></trkpt><trkpt lat="9.9092589" lon="-84.0987615"><ele>1119.2</ele><time>2026-04-10T22:05:47.949Z</time></trkpt><trkpt lat="9.9091801" lon="-84.0987053"><ele>1118.4</ele><time>2026-04-10T22:05:49.95Z</time></trkpt><trkpt lat="9.9090881" lon="-84.0986551"><ele>1117.6</ele><time>2026-04-10T22:05:51.949Z</time></trkpt><trkpt lat="9.9089902" lon="-84.0986228"><ele>1116.8</ele><time>2026-04-10T22:05:53.948Z</time></trkpt><trkpt lat="9.9088984" lon="-84.0986068"><ele>1116.0</ele><time>2026-04-10T22:05:55.95Z</time></trkpt><trkpt lat="9.9088196" lon="-84.0986115"><ele>1116.0</ele><time>2026-04-10T22:05:57.949Z</time></trkpt><trkpt lat="9.9087316" lon="-84.0986382"><ele>1116.0</ele><time>2026-04-10T22:05:59.949Z</time></trkpt><trkpt lat="9.9086562" lon="-84.0986722"><ele>1116.0</ele><time>2026-04-10T22:06:01.949Z</time></trkpt><trkpt lat="9.9085893" lon="-84.0987248"><ele>1116.0</ele><time>2026-04-10T22:06:03.949Z</time></trkpt><trkpt lat="9.9085415" lon="-84.0987986"><ele>1116.0</ele><time>2026-04-10T22:06:05.949Z</time></trkpt><trkpt lat="9.908528" lon="-84.0988929"><ele>1116.0</ele><time>2026-04-10T22:06:07.949Z</time></trkpt><trkpt lat="9.9085285" lon="-84.0989913"><ele>1116.0</ele><time>2026-04-10T22:06:09.949Z</time></trkpt><trkpt lat="9.9085446" lon="-84.0990593"><ele>1116.0</ele><time>2026-04-10T22:06:10.949Z</time></trkpt><trkpt lat="9.908615" lon="-84.0991757"><ele>1116.0</ele><time>2026-04-10T22:06:12.949Z</time></trkpt><trkpt lat="9.9086634" lon="-84.0992358"><ele>1116.0</ele><time>2026-04-10T22:06:13.949Z</time></trkpt><trkpt lat="9.9087174" lon="-84.0992887"><ele>1116.0</ele><time>2026-04-10T22:06:14.948Z</time></trkpt><trkpt lat="9.908772" lon="-84.0993433"><ele>1116.0</ele><time>2026-04-10T22:06:15.949Z</time></trkpt><trkpt lat="9.9088217" lon="-84.0994032"><ele>1115.6666666666667</ele><time>2026-04-10T22:06:16.949Z</time></trkpt><trkpt lat="9.9088652" lon="-84.0994622"><ele>1115.3333333333333</ele><time>2026-04-10T22:06:17.948Z</time></trkpt><trkpt lat="9.9089009" lon="-84.0995321"><ele>1115.0</ele><time>2026-04-10T22:06:18.948Z</time></trkpt><trkpt lat="9.908916" lon="-84.099606"><ele>1114.6666666666665</ele><time>2026-04-10T22:06:19.949Z</time></trkpt><trkpt lat="9.9089079" lon="-84.0996823"><ele>1114.3333333333333</ele><time>2026-04-10T22:06:20.948Z</time></trkpt><trkpt lat="9.9088847" lon="-84.0997668"><ele>1114.0</ele><time>2026-04-10T22:06:21.949Z</time></trkpt><trkpt lat="9.9088662" lon="-84.0998478"><ele>1111.5</ele><time>2026-04-10T22:06:22.95Z</time></trkpt><trkpt lat="9.9088468" lon="-84.0999344"><ele>1109.0</ele><time>2026-04-10T22:06:23.949Z</time></trkpt><trkpt lat="9.9088234" lon="-84.1000226"><ele>1106.5</ele><time>2026-04-10T22:06:24.949Z</time></trkpt><trkpt lat="9.9087939" lon="-84.1001111"><ele>1104.0</ele><time>2026-04-10T22:06:25.948Z</time></trkpt><trkpt lat="9.9087625" lon="-84.1001893"><ele>1101.5</ele><time>2026-04-10T22:06:26.949Z</time></trkpt><trkpt lat="9.9087244" lon="-84.1002743"><ele>1099.0</ele><time>2026-04-10T22:06:27.949Z</time></trkpt><trkpt lat="9.9086757" lon="-84.1003528"><ele>1099.0</ele><time>2026-04-10T22:06:28.95Z</time></trkpt><trkpt lat="9.9086106" lon="-84.1004155"><ele>1099.0</ele><time>2026-04-10T22:06:29.949Z</time></trkpt><trkpt lat="9.9085288" lon="-84.1004628"><ele>1099.0</ele><time>2026-04-10T22:06:30.949Z</time></trkpt><trkpt lat="9.9084343" lon="-84.100483"><ele>1099.0</ele><time>2026-04-10T22:06:31.949Z</time></trkpt><trkpt lat="9.9083425" lon="-84.1004903"><ele>1099.0</ele><time>2026-04-10T22:06:32.949Z</time></trkpt><trkpt lat="9.9082408" lon="-84.1004546"><ele>1099.25</ele><time>2026-04-10T22:06:33.949Z</time></trkpt><trkpt lat="9.9081369" lon="-84.1003942"><ele>1099.5</ele><time>2026-04-10T22:06:34.948Z</time></trkpt><trkpt lat="9.9080306" lon="-84.1003305"><ele>1099.75</ele><time>2026-04-10T22:06:35.95Z</time></trkpt><trkpt lat="9.9079188" lon="-84.1002687"><ele>1100.0</ele><time>2026-04-10T22:06:36.949Z</time></trkpt><trkpt lat="9.9078063" lon="-84.1001956"><ele>1100.0</ele><time>2026-04-10T22:06:37.949Z</time></trkpt><trkpt lat="9.9076856" lon="-84.1001199"><ele>1100.0</ele><time>2026-04-10T22:06:38.949Z</time></trkpt><trkpt lat="9.9075707" lon="-84.1000446"><ele>1100.0</ele><time>2026-04-10T22:06:39.949Z</time></trkpt><trkpt lat="9.9074699" lon="-84.0999829"><ele>1100.0</ele><time>2026-04-10T22:06:40.949Z</time></trkpt><trkpt lat="9.9073822" lon="-84.0999203"><ele>1101.5</ele><time>2026-04-10T22:06:41.948Z</time></trkpt><trkpt lat="9.9072895" lon="-84.0998533"><ele>1103.0</ele><time>2026-04-10T22:06:42.948Z</time></trkpt><trkpt lat="9.9071939" lon="-84.0997927"><ele>1104.5</ele><time>2026-04-10T22:06:43.948Z</time></trkpt><trkpt lat="9.9070949" lon="-84.09972"><ele>1106.0</ele><time>2026-04-10T22:06:44.949Z</time></trkpt><trkpt lat="9.9070018" lon="-84.0996737"><ele>1106.0</ele><time>2026-04-10T22:06:45.949Z</time></trkpt><trkpt lat="9.9068868" lon="-84.0996465"><ele>1106.0</ele><time>2026-04-10T22:06:46.949Z</time></trkpt><trkpt lat="9.9067787" lon="-84.0996437"><ele>1106.0</ele><time>2026-04-10T22:06:47.95Z</time></trkpt><trkpt lat="9.9066827" lon="-84.0996644"><ele>1106.0</ele><time>2026-04-10T22:06:48.947Z</time></trkpt><trkpt lat="9.9065904" lon="-84.0996991"><ele>1106.0</ele><time>2026-04-10T22:06:49.949Z</time></trkpt><trkpt lat="9.9065121" lon="-84.0997613"><ele>1107.8333333333335</ele><time>2026-04-10T22:06:50.949Z</time></trkpt><trkpt lat="9.9064408" lon="-84.0998327"><ele>1109.6666666666667</ele><time>2026-04-10T22:06:51.949Z</time></trkpt><trkpt lat="9.906385" lon="-84.0999036"><ele>1111.5</ele><time>2026-04-10T22:06:52.949Z</time></trkpt><trkpt lat="9.9063389" lon="-84.0999595"><ele>1113.3333333333333</ele><time>2026-04-10T22:06:53.949Z</time></trkpt><trkpt lat="9.9062723" lon="-84.1000406"><ele>1115.1666666666665</ele><time>2026-04-10T22:06:55.949Z</time></trkpt><trkpt lat="9.9062209" lon="-84.100086"><ele>1117.0</ele><time>2026-04-10T22:07:00.949Z</time></trkpt><trkpt lat="9.9061555" lon="-84.1000737"><ele>1118.6666666666665</ele><time>2026-04-10T22:07:17.949Z</time></trkpt><trkpt lat="9.9061038" lon="-84.1001167"><ele>1120.3333333333333</ele><time>2026-04-10T22:07:18.949Z</time></trkpt><trkpt lat="9.9060466" lon="-84.1001514"><ele>1122.0</ele><time>2026-04-10T22:07:19.949Z</time></trkpt><trkpt lat="9.9059348" lon="-84.1001952"><ele>1123.6666666666667</ele><time>2026-04-10T22:07:21.947Z</time></trkpt><trkpt lat="9.9058456" lon="-84.1002285"><ele>1125.3333333333335</ele><time>2026-04-10T22:07:23.949Z</time></trkpt><trkpt lat="9.9057758" lon="-84.1002528"><ele>1127.0</ele><time>2026-04-10T22:07:25.949Z</time></trkpt><trkpt lat="9.9057027" lon="-84.1002538"><ele>1127.2857142857142</ele><time>2026-04-10T22:07:27.949Z</time></trkpt><trkpt lat="9.9056355" lon="-84.1002549"><ele>1127.5714285714284</ele><time>2026-04-10T22:07:29.949Z</time></trkpt><trkpt lat="9.9055687" lon="-84.1002462"><ele>1127.857142857143</ele><time>2026-04-10T22:07:33.949Z</time></trkpt><trkpt lat="9.905505" lon="-84.1002261"><ele>1128.142857142857</ele><time>2026-04-10T22:07:44.949Z</time></trkpt><trkpt lat="9.9054423" lon="-84.1002099"><ele>1128.4285714285713</ele><time>2026-04-10T22:07:53.949Z</time></trkpt><trkpt lat="9.905376" lon="-84.1001955"><ele>1128.7142857142858</ele><time>2026-04-10T22:07:57.949Z</time></trkpt><trkpt lat="9.9052847" lon="-84.100187"><ele>1129.0</ele><time>2026-04-10T22:08:13.948Z</time></trkpt><trkpt lat="9.905195" lon="-84.1001685"><ele>1129.0</ele><time>2026-04-10T22:08:16.948Z</time></trkpt><trkpt lat="9.9051313" lon="-84.1001559"><ele>1129.0</ele><time>2026-04-10T22:08:18.949Z</time></trkpt><trkpt lat="9.9050692" lon="-84.1001412"><ele>1129.0</ele><time>2026-04-10T22:08:20.948Z</time></trkpt><trkpt lat="9.905024" lon="-84.1000761"><ele>1129.0</ele><time>2026-04-10T22:08:22.95Z</time></trkpt><trkpt lat="9.9050321" lon="-84.0999977"><ele>1129.0</ele><time>2026-04-10T22:08:24.949Z</time></trkpt><trkpt lat="9.9050358" lon="-84.0999123"><ele>1129.0</ele><time>2026-04-10T22:08:29.948Z</time></trkpt><trkpt lat="9.9050435" lon="-84.0998217"><ele>1128.6666666666665</ele><time>2026-04-10T22:08:32.948Z</time></trkpt><trkpt lat="9.9050517" lon="-84.099735"><ele>1128.3333333333333</ele><time>2026-04-10T22:08:35.949Z</time></trkpt><trkpt lat="9.905059" lon="-84.0996711"><ele>1128.0</ele><time>2026-04-10T22:08:37.949Z</time></trkpt><trkpt lat="9.9050757" lon="-84.0995745"><ele>1127.6666666666667</ele><time>2026-04-10T22:08:39.947Z</time></trkpt><trkpt lat="9.9050934" lon="-84.0994881"><ele>1127.3333333333335</ele><time>2026-04-10T22:08:41.949Z</time></trkpt><trkpt lat="9.9051073" lon="-84.0994003"><ele>1127.0</ele><time>2026-04-10T22:08:43.948Z</time></trkpt><trkpt lat="9.9050908" lon="-84.0993221"><ele>1127.0</ele><time>2026-04-10T22:08:45.949Z</time></trkpt><trkpt lat="9.9050063" lon="-84.0992754"><ele>1127.0</ele><time>2026-04-10T22:08:47.948Z</time></trkpt><trkpt lat="9.904888" lon="-84.0992491"><ele>1127.0</ele><time>2026-04-10T22:08:49.949Z</time></trkpt><trkpt lat="9.90482" lon="-84.099231"><ele>1127.0</ele><time>2026-04-10T22:08:50.948Z</time></trkpt><trkpt lat="9.904752" lon="-84.0992178"><ele>1127.0</ele><time>2026-04-10T22:08:51.948Z</time></trkpt><trkpt lat="9.9046532" lon="-84.0991709"><ele>1124.6</ele><time>2026-04-10T22:08:53.949Z</time></trkpt><trkpt lat="9.9045794" lon="-84.0990677"><ele>1122.2</ele><time>2026-04-10T22:08:55.948Z</time></trkpt><trkpt lat="9.9045504" lon="-84.0990042"><ele>1119.8</ele><time>2026-04-10T22:08:56.949Z</time></trkpt><trkpt lat="9.9045174" lon="-84.0989441"><ele>1117.4</ele><time>2026-04-10T22:08:57.949Z</time></trkpt><trkpt lat="9.9044688" lon="-84.0988394"><ele>1115.0</ele><time>2026-04-10T22:08:59.948Z</time></trkpt><trkpt lat="9.9044266" lon="-84.0987435"><ele>1115.0</ele><time>2026-04-10T22:09:01.948Z</time></trkpt><trkpt lat="9.9043842" lon="-84.0986543"><ele>1115.0</ele><time>2026-04-10T22:09:03.95Z</time></trkpt><trkpt lat="9.9043511" lon="-84.0985848"><ele>1115.0</ele><time>2026-04-10T22:09:05.949Z</time></trkpt><trkpt lat="9.9043232" lon="-84.0985209"><ele>1115.0</ele><time>2026-04-10T22:09:07.949Z</time></trkpt><trkpt lat="9.9042934" lon="-84.0984318"><ele>1115.0</ele><time>2026-04-10T22:09:09.949Z</time></trkpt><trkpt lat="9.9042664" lon="-84.0983406"><ele>1115.0</ele><time>2026-04-10T22:09:11.948Z</time></trkpt><trkpt lat="9.9042417" lon="-84.0982683"><ele>1115.8</ele><time>2026-04-10T22:09:13.949Z</time></trkpt><trkpt lat="9.9042148" lon="-84.0981852"><ele>1116.6</ele><time>2026-04-10T22:09:16.949Z</time></trkpt><trkpt lat="9.9041773" lon="-84.0981006"><ele>1117.4</ele><time>2026-04-10T22:09:18.948Z</time></trkpt><trkpt lat="9.9041181" lon="-84.0979976"><ele>1118.2</ele><time>2026-04-10T22:09:20.948Z</time></trkpt><trkpt lat="9.9040375" lon="-84.0979003"><ele>1119.0</ele><time>2026-04-10T22:09:22.95Z</time></trkpt><trkpt lat="9.9039895" lon="-84.097855"><ele>1119.0</ele><time>2026-04-10T22:09:23.949Z</time></trkpt><trkpt lat="9.9039073" lon="-84.0977712"><ele>1119.0</ele><time>2026-04-10T22:09:25.948Z</time></trkpt><trkpt lat="9.9038385" lon="-84.0977033"><ele>1119.0</ele><time>2026-04-10T22:09:27.949Z</time></trkpt><trkpt lat="9.9037752" lon="-84.097655"><ele>1119.0</ele><time>2026-04-10T22:09:31.947Z</time></trkpt><trkpt lat="9.903707" lon="-84.0975824"><ele>1119.0</ele><time>2026-04-10T22:09:41.947Z</time></trkpt><trkpt lat="9.9036699" lon="-84.0974773"><ele>1116.857142857143</ele><time>2026-04-10T22:09:43.948Z</time></trkpt><trkpt lat="9.9036444" lon="-84.0974164"><ele>1114.7142857142858</ele><time>2026-04-10T22:09:44.949Z</time></trkpt><trkpt lat="9.9036182" lon="-84.0973503"><ele>1112.5714285714287</ele><time>2026-04-10T22:09:45.947Z</time></trkpt><trkpt lat="9.9035809" lon="-84.0972846"><ele>1110.4285714285716</ele><time>2026-04-10T22:09:46.948Z</time></trkpt><trkpt lat="9.9035545" lon="-84.0972215"><ele>1108.2857142857144</ele><time>2026-04-10T22:09:47.948Z</time></trkpt><trkpt lat="9.9035268" lon="-84.0971618"><ele>1106.142857142857</ele><time>2026-04-10T22:09:48.949Z</time></trkpt><trkpt lat="9.9034926" lon="-84.0970967"><ele>1104.0</ele><time>2026-04-10T22:09:49.947Z</time></trkpt><trkpt lat="9.903459" lon="-84.0970393"><ele>1104.0</ele><time>2026-04-10T22:09:50.948Z</time></trkpt><trkpt lat="9.9034254" lon="-84.096972"><ele>1104.0</ele><time>2026-04-10T22:09:51.949Z</time></trkpt><trkpt lat="9.9033932" lon="-84.0969118"><ele>1104.0</ele><time>2026-04-10T22:09:52.949Z</time></trkpt><trkpt lat="9.9033594" lon="-84.0968476"><ele>1104.0</ele><time>2026-04-10T22:09:53.948Z</time></trkpt><trkpt lat="9.9032978" lon="-84.0967376"><ele>1104.0</ele><time>2026-04-10T22:09:55.948Z</time></trkpt><trkpt lat="9.9032441" lon="-84.096626"><ele>1111.0</ele><time>2026-04-10T22:09:57.948Z</time></trkpt><trkpt lat="9.9031948" lon="-84.0965511"><ele>1104.0</ele><time>2026-04-10T22:09:59.949Z</time></trkpt></trkseg></trk></gpx>